QFA63 YSSY-FAOR
Flight info
| Callsign | QFA63 |
|---|---|
| Flight time | N/A |
| Altitude | 34000 |
| Route | GROOK1/16R WOL J42 AY T8 CRENA DCT 3900S13304E 4027S12633E 4159S11901E/N0483F360 4222S11706E 4319S11055E 4352S10438E 4403S09638E 4337S08827E/N0483F380 4250S08245E 4156S07648E 4137S07500E 4134S07441E 4027S06745E 3856S06117E 3759S05700E 3719S05426E 3553S04842E/N0484F400 3356S04150E 3112S03545E 2956S03349E DCT EPSAK DCT AVILO AVILO1B |
| Aircraft | A388/J-SADE2E3FGHIJ3J4J5M1RWXY/LB1D1 |
Departure
| Time | N/A |
|---|---|
| Airport | Sydney Kingsford Smith International Airport (YSSY) |
Arrival
| Time | 2026-05-06 19:57 |
|---|---|
| Airport | O.R. Tambo International Airport (FAOR) |
| Time | Latitude | Longitude | Altitude | Speed | Heading |
|---|---|---|---|---|---|
| 2026-05-06 12:12 | -43.68369 | 89.23150 | 35938 ft | 462 kts | 276° |
| 2026-05-06 12:12 | -43.68126 | 89.20205 | 35936 ft | 462 kts | 276° |
| 2026-05-06 12:13 | -43.67587 | 89.13693 | 35935 ft | 461 kts | 276° |
| 2026-05-06 12:13 | -43.66848 | 89.04838 | 35935 ft | 461 kts | 276° |
| 2026-05-06 12:14 | -43.66109 | 88.96067 | 36122 ft | 464 kts | 277° |
| 2026-05-06 12:14 | -43.65734 | 88.91646 | 36651 ft | 461 kts | 277° |
| 2026-05-06 12:14 | -43.65359 | 88.87257 | 37192 ft | 458 kts | 277° |
| 2026-05-06 12:15 | -43.64981 | 88.82843 | 37701 ft | 456 kts | 276° |
| 2026-05-06 12:15 | -43.64616 | 88.78587 | 37902 ft | 459 kts | 277° |
| 2026-05-06 12:15 | -43.63871 | 88.69934 | 37928 ft | 450 kts | 277° |
| 2026-05-06 12:16 | -43.63119 | 88.61253 | 37925 ft | 452 kts | 277° |
| 2026-05-06 12:16 | -43.62370 | 88.52683 | 37925 ft | 452 kts | 277° |
| 2026-05-06 12:17 | -43.61577 | 88.44059 | 37908 ft | 452 kts | 278° |
| 2026-05-06 12:17 | -43.60564 | 88.35503 | 37916 ft | 452 kts | 278° |
| 2026-05-06 12:18 | -43.59619 | 88.26921 | 37898 ft | 452 kts | 278° |
| 2026-05-06 12:18 | -43.58672 | 88.18402 | 37902 ft | 451 kts | 278° |
| 2026-05-06 12:19 | -43.57707 | 88.09853 | 37899 ft | 451 kts | 279° |
| 2026-05-06 12:19 | -43.56726 | 88.01279 | 37902 ft | 452 kts | 279° |
| 2026-05-06 12:20 | -43.55740 | 87.92735 | 37919 ft | 452 kts | 279° |
| 2026-05-06 12:20 | -43.54745 | 87.84172 | 37922 ft | 452 kts | 279° |
| 2026-05-06 12:21 | -43.53743 | 87.75609 | 37924 ft | 452 kts | 279° |
| 2026-05-06 12:21 | -43.52733 | 87.67030 | 37926 ft | 453 kts | 279° |
| 2026-05-06 12:22 | -43.51725 | 87.58532 | 37923 ft | 453 kts | 279° |
| 2026-05-06 12:22 | -43.50701 | 87.49949 | 37924 ft | 453 kts | 279° |
| 2026-05-06 12:23 | -43.49670 | 87.41364 | 37917 ft | 452 kts | 279° |
| 2026-05-06 12:23 | -43.48638 | 87.32830 | 37910 ft | 452 kts | 279° |
| 2026-05-06 12:24 | -43.47603 | 87.24329 | 37907 ft | 452 kts | 279° |
| 2026-05-06 12:24 | -43.46554 | 87.15765 | 37895 ft | 452 kts | 280° |
| 2026-05-06 12:25 | -43.45507 | 87.07266 | 37883 ft | 452 kts | 280° |
| 2026-05-06 12:25 | -43.44449 | 86.98745 | 37880 ft | 452 kts | 280° |
| 2026-05-06 12:26 | -43.43386 | 86.90227 | 37887 ft | 451 kts | 280° |
| 2026-05-06 12:26 | -43.42317 | 86.81715 | 37896 ft | 451 kts | 280° |
| 2026-05-06 12:27 | -43.41243 | 86.73223 | 37893 ft | 451 kts | 280° |
| 2026-05-06 12:27 | -43.40163 | 86.64733 | 37899 ft | 450 kts | 280° |
| 2026-05-06 12:28 | -43.39085 | 86.56307 | 37889 ft | 450 kts | 280° |
| 2026-05-06 12:28 | -43.37996 | 86.47851 | 37880 ft | 449 kts | 281° |
| 2026-05-06 12:29 | -43.36898 | 86.39373 | 37883 ft | 449 kts | 281° |
| 2026-05-06 12:29 | -43.35799 | 86.30942 | 37885 ft | 449 kts | 281° |
| 2026-05-06 12:30 | -43.34692 | 86.22501 | 37891 ft | 448 kts | 281° |
| 2026-05-06 12:30 | -43.33585 | 86.14110 | 37889 ft | 448 kts | 281° |
| 2026-05-06 12:31 | -43.32467 | 86.05679 | 37883 ft | 448 kts | 281° |
| 2026-05-06 12:31 | -43.31345 | 85.97272 | 37881 ft | 447 kts | 281° |
| 2026-05-06 12:32 | -43.30218 | 85.88876 | 37882 ft | 447 kts | 281° |
| 2026-05-06 12:32 | -43.29086 | 85.80496 | 37874 ft | 447 kts | 281° |
| 2026-05-06 12:33 | -43.27945 | 85.72094 | 37869 ft | 446 kts | 281° |
| 2026-05-06 12:33 | -43.26808 | 85.63772 | 37876 ft | 446 kts | 281° |
| 2026-05-06 12:34 | -43.25662 | 85.55426 | 37872 ft | 445 kts | 281° |
| 2026-05-06 12:34 | -43.24508 | 85.47075 | 37872 ft | 444 kts | 281° |
| 2026-05-06 12:35 | -43.23356 | 85.38778 | 37869 ft | 444 kts | 281° |
| 2026-05-06 12:35 | -43.22185 | 85.30397 | 37865 ft | 443 kts | 281° |
| 2026-05-06 12:36 | -43.21026 | 85.22148 | 37868 ft | 442 kts | 281° |
| 2026-05-06 12:36 | -43.19857 | 85.13867 | 37856 ft | 442 kts | 281° |
| 2026-05-06 12:37 | -43.18682 | 85.05596 | 37868 ft | 441 kts | 281° |
| 2026-05-06 12:37 | -43.17504 | 84.97348 | 37856 ft | 441 kts | 281° |
| 2026-05-06 12:38 | -43.16330 | 84.89167 | 37862 ft | 440 kts | 281° |
| 2026-05-06 12:38 | -43.15139 | 84.80918 | 37865 ft | 440 kts | 281° |
| 2026-05-06 12:39 | -43.13948 | 84.72710 | 37846 ft | 439 kts | 281° |
| 2026-05-06 12:39 | -43.12756 | 84.64540 | 37846 ft | 439 kts | 281° |
| 2026-05-06 12:40 | -43.11549 | 84.56308 | 37857 ft | 438 kts | 281° |
| 2026-05-06 12:40 | -43.10346 | 84.48149 | 37859 ft | 437 kts | 281° |
| 2026-05-06 12:41 | -43.09139 | 84.40002 | 37844 ft | 436 kts | 281° |
| 2026-05-06 12:41 | -43.07934 | 84.31910 | 37839 ft | 436 kts | 281° |
| 2026-05-06 12:42 | -43.06719 | 84.23797 | 37847 ft | 435 kts | 281° |
| 2026-05-06 12:42 | -43.05498 | 84.15680 | 37837 ft | 434 kts | 281° |
| 2026-05-06 12:43 | -43.04277 | 84.07611 | 37837 ft | 433 kts | 282° |
| 2026-05-06 12:43 | -43.03060 | 83.99602 | 37831 ft | 433 kts | 282° |
| 2026-05-06 12:44 | -43.02030 | 83.92861 | 37830 ft | 432 kts | 282° |
| 2026-05-06 12:44 | -43.00593 | 83.83497 | 37835 ft | 432 kts | 282° |
| 2026-05-06 12:45 | -42.99358 | 83.75495 | 37836 ft | 431 kts | 282° |
| 2026-05-06 12:46 | -42.97702 | 83.64818 | 37830 ft | 430 kts | 282° |
| 2026-05-06 12:46 | -42.96455 | 83.56831 | 37830 ft | 430 kts | 282° |
| 2026-05-06 12:47 | -42.95201 | 83.48835 | 37825 ft | 429 kts | 282° |
| 2026-05-06 12:47 | -42.93945 | 83.40865 | 37820 ft | 429 kts | 282° |
| 2026-05-06 12:48 | -42.92687 | 83.32917 | 37822 ft | 428 kts | 282° |
| 2026-05-06 12:48 | -42.91424 | 83.24978 | 37827 ft | 428 kts | 282° |
| 2026-05-06 12:49 | -42.90163 | 83.17093 | 37821 ft | 428 kts | 283° |
| 2026-05-06 12:49 | -42.88888 | 83.09155 | 37814 ft | 427 kts | 283° |
| 2026-05-06 12:50 | -42.87611 | 83.01242 | 37814 ft | 427 kts | 283° |
| 2026-05-06 12:50 | -42.86335 | 82.93355 | 37810 ft | 426 kts | 283° |
| 2026-05-06 12:51 | -42.85054 | 82.85458 | 37809 ft | 426 kts | 283° |
| 2026-05-06 12:51 | -42.83776 | 82.77618 | 37804 ft | 426 kts | 283° |
| 2026-05-06 12:52 | -42.82586 | 82.69721 | 37799 ft | 426 kts | 281° |
| 2026-05-06 12:52 | -42.81644 | 82.61767 | 37800 ft | 425 kts | 280° |
| 2026-05-06 12:53 | -42.80680 | 82.53787 | 37800 ft | 425 kts | 281° |
| 2026-05-06 12:53 | -42.79697 | 82.45898 | 37799 ft | 425 kts | 281° |
| 2026-05-06 12:54 | -42.78699 | 82.37969 | 37791 ft | 424 kts | 281° |
| 2026-05-06 12:54 | -42.77692 | 82.30046 | 37796 ft | 424 kts | 281° |
| 2026-05-06 12:55 | -42.76683 | 82.22167 | 37793 ft | 424 kts | 281° |
| 2026-05-06 12:55 | -42.75662 | 82.14231 | 37794 ft | 423 kts | 282° |
| 2026-05-06 12:56 | -42.74642 | 82.06351 | 37791 ft | 422 kts | 282° |
| 2026-05-06 12:56 | -42.73624 | 81.98532 | 37790 ft | 421 kts | 282° |
| 2026-05-06 12:57 | -42.72594 | 81.90659 | 37783 ft | 421 kts | 282° |
| 2026-05-06 12:57 | -42.71565 | 81.82838 | 37783 ft | 420 kts | 282° |
| 2026-05-06 12:58 | -42.70527 | 81.74999 | 37767 ft | 420 kts | 282° |
| 2026-05-06 12:58 | -42.69490 | 81.67200 | 37762 ft | 419 kts | 282° |
| 2026-05-06 12:59 | -42.68447 | 81.59407 | 37763 ft | 418 kts | 282° |
| 2026-05-06 12:59 | -42.67407 | 81.51672 | 37757 ft | 418 kts | 282° |
| 2026-05-06 13:00 | -42.66355 | 81.43895 | 37753 ft | 417 kts | 282° |
| 2026-05-06 13:00 | -42.65299 | 81.36124 | 37729 ft | 419 kts | 283° |
| 2026-05-06 13:01 | -42.64235 | 81.28344 | 37710 ft | 419 kts | 283° |
| 2026-05-06 13:01 | -42.63170 | 81.20588 | 37758 ft | 418 kts | 283° |
| 2026-05-06 13:02 | -42.62096 | 81.12811 | 37757 ft | 418 kts | 283° |
| 2026-05-06 13:02 | -42.61019 | 81.05052 | 37744 ft | 417 kts | 283° |
| 2026-05-06 13:03 | -42.59946 | 80.97367 | 37735 ft | 417 kts | 283° |
| 2026-05-06 13:03 | -42.58861 | 80.89629 | 37730 ft | 417 kts | 283° |
| 2026-05-06 13:04 | -42.57771 | 80.81900 | 37730 ft | 417 kts | 283° |
| 2026-05-06 13:04 | -42.56675 | 80.74161 | 37727 ft | 417 kts | 283° |
| 2026-05-06 13:05 | -42.55573 | 80.66428 | 37724 ft | 418 kts | 283° |
| 2026-05-06 13:05 | -42.54465 | 80.58692 | 37724 ft | 418 kts | 283° |
| 2026-05-06 13:06 | -42.53352 | 80.50951 | 37720 ft | 418 kts | 283° |
| 2026-05-06 13:06 | -42.52231 | 80.43199 | 37717 ft | 419 kts | 283° |
| 2026-05-06 13:07 | -42.51111 | 80.35492 | 37718 ft | 419 kts | 283° |
| 2026-05-06 13:07 | -42.49978 | 80.27740 | 37716 ft | 419 kts | 284° |
| 2026-05-06 13:08 | -42.48842 | 80.20001 | 37712 ft | 419 kts | 284° |
| 2026-05-06 13:08 | -42.47700 | 80.12257 | 37713 ft | 419 kts | 284° |
| 2026-05-06 13:09 | -42.46552 | 80.04513 | 37711 ft | 418 kts | 284° |
| 2026-05-06 13:09 | -42.45410 | 79.96845 | 37701 ft | 418 kts | 284° |
| 2026-05-06 13:10 | -42.44255 | 79.89131 | 37700 ft | 418 kts | 284° |
| 2026-05-06 13:10 | -42.43095 | 79.81416 | 37700 ft | 418 kts | 284° |
| 2026-05-06 13:11 | -42.41929 | 79.73705 | 37695 ft | 418 kts | 284° |
| 2026-05-06 13:11 | -42.40762 | 79.66020 | 37696 ft | 417 kts | 284° |
| 2026-05-06 13:12 | -42.39585 | 79.58306 | 37692 ft | 417 kts | 284° |
| 2026-05-06 13:12 | -42.38407 | 79.50622 | 37692 ft | 417 kts | 284° |
| 2026-05-06 13:13 | -42.37230 | 79.42981 | 37686 ft | 417 kts | 284° |
| 2026-05-06 13:13 | -42.36039 | 79.35283 | 37685 ft | 417 kts | 284° |
| 2026-05-06 13:14 | -42.34845 | 79.27606 | 37682 ft | 418 kts | 284° |
| 2026-05-06 13:14 | -42.33643 | 79.19911 | 37677 ft | 418 kts | 284° |
| 2026-05-06 13:15 | -42.32438 | 79.12233 | 37675 ft | 418 kts | 284° |
| 2026-05-06 13:15 | -42.31227 | 79.04555 | 37678 ft | 418 kts | 284° |
| 2026-05-06 13:16 | -42.30009 | 78.96865 | 37676 ft | 418 kts | 284° |
| 2026-05-06 13:16 | -42.28787 | 78.89181 | 37668 ft | 418 kts | 285° |
| 2026-05-06 13:17 | -42.27563 | 78.81527 | 37670 ft | 419 kts | 285° |
| 2026-05-06 13:17 | -42.26330 | 78.73848 | 37668 ft | 419 kts | 285° |
| 2026-05-06 13:18 | -42.25088 | 78.66147 | 37661 ft | 419 kts | 285° |
| 2026-05-06 13:18 | -42.23849 | 78.58500 | 37660 ft | 419 kts | 285° |
| 2026-05-06 13:19 | -42.22593 | 78.50783 | 37654 ft | 419 kts | 285° |
| 2026-05-06 13:19 | -42.21339 | 78.43117 | 37650 ft | 418 kts | 285° |
| 2026-05-06 13:20 | -42.20080 | 78.35453 | 37649 ft | 418 kts | 285° |
| 2026-05-06 13:20 | -42.18823 | 78.27829 | 37642 ft | 418 kts | 285° |
| 2026-05-06 13:21 | -42.17555 | 78.20181 | 37631 ft | 418 kts | 285° |
| 2026-05-06 13:21 | -42.16282 | 78.12532 | 37626 ft | 417 kts | 285° |
| 2026-05-06 13:22 | -42.15013 | 78.04937 | 37630 ft | 416 kts | 285° |
| 2026-05-06 13:22 | -42.13736 | 77.97330 | 37627 ft | 416 kts | 286° |
| 2026-05-06 13:23 | -42.12457 | 77.89746 | 37624 ft | 415 kts | 286° |
| 2026-05-06 13:23 | -42.11176 | 77.82181 | 37606 ft | 414 kts | 286° |
| 2026-05-06 13:24 | -42.09889 | 77.74614 | 37602 ft | 413 kts | 286° |
| 2026-05-06 13:24 | -42.08600 | 77.67064 | 37601 ft | 413 kts | 286° |
| 2026-05-06 13:25 | -42.07308 | 77.59535 | 37598 ft | 412 kts | 286° |
| 2026-05-06 13:25 | -42.06022 | 77.52067 | 37594 ft | 411 kts | 286° |
| 2026-05-06 13:26 | -42.04729 | 77.44588 | 37586 ft | 411 kts | 286° |
| 2026-05-06 13:26 | -42.03427 | 77.37095 | 37581 ft | 410 kts | 287° |
| 2026-05-06 13:27 | -42.02343 | 77.30875 | 37583 ft | 409 kts | 287° |
| 2026-05-06 13:27 | -42.00827 | 77.22217 | 37577 ft | 409 kts | 287° |
| 2026-05-06 13:28 | -41.99738 | 77.16019 | 37568 ft | 408 kts | 287° |
| 2026-05-06 13:28 | -41.98430 | 77.08606 | 37567 ft | 408 kts | 287° |
| 2026-05-06 13:29 | -41.97115 | 77.01173 | 37558 ft | 407 kts | 287° |
| 2026-05-06 13:29 | -41.95811 | 76.93820 | 37561 ft | 407 kts | 287° |
| 2026-05-06 13:30 | -41.94488 | 76.86386 | 37554 ft | 406 kts | 287° |
| 2026-05-06 13:30 | -41.93171 | 76.79050 | 37555 ft | 406 kts | 288° |
| 2026-05-06 13:31 | -41.91883 | 76.71652 | 37551 ft | 406 kts | 286° |
| 2026-05-06 13:31 | -41.90674 | 76.64247 | 37550 ft | 406 kts | 286° |
| 2026-05-06 13:32 | -41.89447 | 76.56920 | 37547 ft | 405 kts | 287° |
| 2026-05-06 13:32 | -41.88193 | 76.49530 | 37543 ft | 405 kts | 287° |
| 2026-05-06 13:33 | -41.86935 | 76.42159 | 37542 ft | 404 kts | 287° |
| 2026-05-06 13:33 | -41.85677 | 76.34815 | 37536 ft | 404 kts | 287° |
| 2026-05-06 13:34 | -41.84418 | 76.27491 | 37518 ft | 403 kts | 287° |
| 2026-05-06 13:34 | -41.83159 | 76.20202 | 37520 ft | 402 kts | 287° |
| 2026-05-06 13:35 | -41.81884 | 76.12843 | 37519 ft | 402 kts | 287° |
| 2026-05-06 13:35 | -41.80624 | 76.05606 | 37515 ft | 401 kts | 287° |
| 2026-05-06 13:36 | -41.79351 | 75.98320 | 37516 ft | 401 kts | 287° |
| 2026-05-06 13:36 | -41.78074 | 75.91045 | 37518 ft | 400 kts | 287° |
| 2026-05-06 13:37 | -41.76794 | 75.83780 | 37516 ft | 400 kts | 287° |
| 2026-05-06 13:37 | -41.75512 | 75.76527 | 37510 ft | 399 kts | 287° |
| 2026-05-06 13:38 | -41.74237 | 75.69351 | 37500 ft | 399 kts | 288° |
| 2026-05-06 13:38 | -41.72949 | 75.62121 | 37501 ft | 398 kts | 288° |
| 2026-05-06 13:39 | -41.71656 | 75.54900 | 37497 ft | 398 kts | 288° |
| 2026-05-06 13:39 | -41.70368 | 75.47726 | 37490 ft | 397 kts | 288° |
| 2026-05-06 13:40 | -41.69072 | 75.40541 | 37488 ft | 396 kts | 288° |
| 2026-05-06 13:40 | -41.67773 | 75.33365 | 37485 ft | 396 kts | 288° |
| 2026-05-06 13:41 | -41.66472 | 75.26207 | 37481 ft | 395 kts | 288° |
| 2026-05-06 13:41 | -41.65168 | 75.19061 | 37480 ft | 395 kts | 288° |
| 2026-05-06 13:42 | -41.63870 | 75.11971 | 37469 ft | 394 kts | 288° |
| 2026-05-06 13:42 | -41.62560 | 75.04842 | 37472 ft | 394 kts | 288° |
| 2026-05-06 13:43 | -41.61262 | 74.97726 | 37468 ft | 394 kts | 288° |
| 2026-05-06 13:43 | -41.60147 | 74.90545 | 37465 ft | 395 kts | 287° |
| 2026-05-06 13:44 | -41.59051 | 74.83397 | 37462 ft | 394 kts | 287° |
| 2026-05-06 13:44 | -41.57916 | 74.76181 | 37455 ft | 394 kts | 287° |
| 2026-05-06 13:45 | -41.56785 | 74.69075 | 37453 ft | 393 kts | 287° |
| 2026-05-06 13:45 | -41.55314 | 74.58259 | 37430 ft | 395 kts | 285° |
| 2026-05-06 13:46 | -41.54408 | 74.51045 | 37445 ft | 394 kts | 285° |
| 2026-05-06 13:46 | -41.53480 | 74.43864 | 37438 ft | 394 kts | 286° |
| 2026-05-06 13:47 | -41.52538 | 74.36650 | 37435 ft | 394 kts | 286° |
| 2026-05-06 13:47 | -41.51591 | 74.29437 | 37431 ft | 394 kts | 286° |
| 2026-05-06 13:48 | -41.50637 | 74.22225 | 37428 ft | 394 kts | 286° |
| 2026-05-06 13:48 | -41.49679 | 74.15030 | 37418 ft | 394 kts | 286° |
| 2026-05-06 13:49 | -41.48716 | 74.07843 | 37421 ft | 394 kts | 286° |
| 2026-05-06 13:49 | -41.47748 | 74.00646 | 37414 ft | 394 kts | 286° |
| 2026-05-06 13:50 | -41.46781 | 73.93493 | 37410 ft | 394 kts | 286° |
| 2026-05-06 13:50 | -41.45805 | 73.86308 | 37411 ft | 394 kts | 286° |
| 2026-05-06 13:51 | -41.44821 | 73.79106 | 37402 ft | 393 kts | 286° |
| 2026-05-06 13:51 | -41.43837 | 73.71935 | 37396 ft | 393 kts | 287° |
| 2026-05-06 13:52 | -41.42855 | 73.64812 | 37389 ft | 393 kts | 287° |
| 2026-05-06 13:52 | -41.41857 | 73.57601 | 37389 ft | 393 kts | 287° |
| 2026-05-06 13:53 | -41.40864 | 73.50473 | 37383 ft | 393 kts | 287° |
| 2026-05-06 13:53 | -41.39861 | 73.43303 | 37382 ft | 393 kts | 287° |
| 2026-05-06 13:54 | -41.38856 | 73.36144 | 37381 ft | 394 kts | 287° |
| 2026-05-06 13:54 | -41.37841 | 73.28958 | 37376 ft | 394 kts | 287° |
| 2026-05-06 13:55 | -41.36830 | 73.21834 | 37377 ft | 394 kts | 287° |
| 2026-05-06 13:55 | -41.35810 | 73.14676 | 37374 ft | 394 kts | 287° |
| 2026-05-06 13:56 | -41.34785 | 73.07511 | 37373 ft | 394 kts | 287° |
| 2026-05-06 13:56 | -41.33753 | 73.00335 | 37368 ft | 394 kts | 287° |
| 2026-05-06 13:57 | -41.32716 | 72.93165 | 37370 ft | 394 kts | 287° |
| 2026-05-06 13:57 | -41.31678 | 72.86012 | 37367 ft | 394 kts | 287° |
| 2026-05-06 13:58 | -41.30631 | 72.78831 | 37368 ft | 395 kts | 287° |
| 2026-05-06 13:58 | -41.29578 | 72.71643 | 37367 ft | 395 kts | 287° |
| 2026-05-06 13:59 | -41.28531 | 72.64531 | 37370 ft | 395 kts | 287° |
| 2026-05-06 13:59 | -41.27472 | 72.57369 | 37368 ft | 395 kts | 287° |
| 2026-05-06 14:00 | -41.26404 | 72.50181 | 37366 ft | 395 kts | 287° |
| 2026-05-06 14:00 | -41.25337 | 72.43027 | 37373 ft | 395 kts | 287° |
| 2026-05-06 14:01 | -41.24274 | 72.35933 | 37378 ft | 394 kts | 287° |
| 2026-05-06 14:01 | -41.23195 | 72.28763 | 37376 ft | 394 kts | 287° |
| 2026-05-06 14:02 | -41.22114 | 72.21615 | 37379 ft | 395 kts | 287° |
| 2026-05-06 14:02 | -41.21026 | 72.14447 | 37370 ft | 395 kts | 287° |
| 2026-05-06 14:03 | -41.19935 | 72.07298 | 37381 ft | 395 kts | 287° |
| 2026-05-06 14:03 | -41.18849 | 72.00207 | 37379 ft | 395 kts | 287° |
| 2026-05-06 14:04 | -41.17746 | 71.93036 | 37391 ft | 395 kts | 287° |
| 2026-05-06 14:04 | -41.16643 | 71.85902 | 37383 ft | 395 kts | 287° |
| 2026-05-06 14:05 | -41.15536 | 71.78765 | 37386 ft | 395 kts | 287° |
| 2026-05-06 14:05 | -41.14423 | 71.71623 | 37386 ft | 394 kts | 287° |
| 2026-05-06 14:06 | -41.13307 | 71.64491 | 37395 ft | 394 kts | 287° |
| 2026-05-06 14:06 | -41.12194 | 71.57413 | 37396 ft | 393 kts | 287° |
| 2026-05-06 14:07 | -41.11074 | 71.50313 | 37404 ft | 393 kts | 287° |
| 2026-05-06 14:07 | -41.10141 | 71.44425 | 37403 ft | 392 kts | 287° |
| 2026-05-06 14:08 | -41.08830 | 71.36190 | 37417 ft | 391 kts | 286° |
| 2026-05-06 14:08 | -41.07705 | 71.29149 | 37416 ft | 390 kts | 286° |
| 2026-05-06 14:09 | -41.06770 | 71.23320 | 37422 ft | 389 kts | 286° |
| 2026-05-06 14:09 | -41.05640 | 71.16307 | 37426 ft | 388 kts | 286° |
| 2026-05-06 14:10 | -41.04512 | 71.09332 | 37427 ft | 386 kts | 286° |
| 2026-05-06 14:10 | -41.03382 | 71.02373 | 37427 ft | 385 kts | 287° |
| 2026-05-06 14:11 | -41.02260 | 70.95488 | 37431 ft | 384 kts | 287° |
| 2026-05-06 14:11 | -41.01120 | 70.88525 | 37413 ft | 383 kts | 287° |
| 2026-05-06 14:12 | -40.99991 | 70.81654 | 37430 ft | 382 kts | 287° |
| 2026-05-06 14:12 | -40.98861 | 70.74809 | 37417 ft | 382 kts | 287° |
| 2026-05-06 14:13 | -40.97726 | 70.67956 | 37420 ft | 381 kts | 287° |
| 2026-05-06 14:13 | -40.96588 | 70.61115 | 37422 ft | 380 kts | 287° |
| 2026-05-06 14:14 | -40.95445 | 70.54269 | 37421 ft | 380 kts | 287° |
| 2026-05-06 14:14 | -40.94304 | 70.47461 | 37428 ft | 380 kts | 287° |
| 2026-05-06 14:15 | -40.93156 | 70.40637 | 37433 ft | 379 kts | 287° |
| 2026-05-06 14:15 | -40.92007 | 70.33832 | 37431 ft | 379 kts | 287° |
| 2026-05-06 14:16 | -40.90854 | 70.27034 | 37427 ft | 379 kts | 287° |
| 2026-05-06 14:16 | -40.89695 | 70.20227 | 37437 ft | 379 kts | 287° |
| 2026-05-06 14:17 | -40.88542 | 70.13475 | 37447 ft | 379 kts | 288° |
| 2026-05-06 14:17 | -40.87373 | 70.06656 | 37455 ft | 380 kts | 288° |
| 2026-05-06 14:18 | -40.86202 | 69.99856 | 37458 ft | 380 kts | 288° |
| 2026-05-06 14:18 | -40.85029 | 69.93064 | 37467 ft | 380 kts | 288° |
| 2026-05-06 14:19 | -40.83846 | 69.86244 | 37471 ft | 380 kts | 288° |
| 2026-05-06 14:19 | -40.82660 | 69.79430 | 37474 ft | 380 kts | 288° |
| 2026-05-06 14:20 | -40.81473 | 69.72637 | 37478 ft | 380 kts | 288° |
| 2026-05-06 14:20 | -40.80286 | 69.65869 | 37478 ft | 380 kts | 288° |
| 2026-05-06 14:21 | -40.79092 | 69.59084 | 37481 ft | 380 kts | 288° |
| 2026-05-06 14:21 | -40.77888 | 69.52269 | 37477 ft | 380 kts | 288° |
| 2026-05-06 14:22 | -40.76682 | 69.45468 | 37480 ft | 380 kts | 288° |
| 2026-05-06 14:22 | -40.75471 | 69.38667 | 37491 ft | 381 kts | 288° |
| 2026-05-06 14:23 | -40.74263 | 69.31899 | 37493 ft | 381 kts | 288° |
| 2026-05-06 14:23 | -40.73043 | 69.25099 | 37490 ft | 381 kts | 288° |
| 2026-05-06 14:24 | -40.71815 | 69.18274 | 37494 ft | 382 kts | 288° |
| 2026-05-06 14:24 | -40.70584 | 69.11457 | 37496 ft | 382 kts | 288° |
| 2026-05-06 14:25 | -40.69349 | 69.04643 | 37503 ft | 382 kts | 288° |
| 2026-05-06 14:25 | -40.68111 | 68.97836 | 37505 ft | 382 kts | 288° |
| 2026-05-06 14:26 | -40.66870 | 68.91037 | 37506 ft | 382 kts | 288° |
| 2026-05-06 14:26 | -40.65620 | 68.84212 | 37511 ft | 382 kts | 288° |
| 2026-05-06 14:27 | -40.64377 | 68.77452 | 37513 ft | 382 kts | 288° |
| 2026-05-06 14:27 | -40.63124 | 68.70658 | 37514 ft | 381 kts | 288° |
| 2026-05-06 14:28 | -40.61870 | 68.63887 | 37517 ft | 381 kts | 288° |
| 2026-05-06 14:28 | -40.60611 | 68.57112 | 37531 ft | 380 kts | 288° |
| 2026-05-06 14:29 | -40.59357 | 68.50388 | 37521 ft | 380 kts | 288° |
| 2026-05-06 14:29 | -40.58096 | 68.43649 | 37519 ft | 379 kts | 288° |
| 2026-05-06 14:30 | -40.56824 | 68.36875 | 37526 ft | 379 kts | 288° |
| 2026-05-06 14:30 | -40.55568 | 68.30208 | 37519 ft | 378 kts | 288° |
| 2026-05-06 14:31 | -40.54298 | 68.23492 | 37530 ft | 378 kts | 288° |
| 2026-05-06 14:31 | -40.53028 | 68.16794 | 37535 ft | 377 kts | 288° |
| 2026-05-06 14:32 | -40.51764 | 68.10158 | 37533 ft | 377 kts | 288° |
| 2026-05-06 14:32 | -40.50485 | 68.03460 | 37540 ft | 376 kts | 288° |
| 2026-05-06 14:33 | -40.49211 | 67.96799 | 37544 ft | 376 kts | 288° |
| 2026-05-06 14:33 | -40.47936 | 67.90146 | 37540 ft | 375 kts | 288° |
| 2026-05-06 14:34 | -40.46656 | 67.83488 | 37549 ft | 375 kts | 288° |
| 2026-05-06 14:34 | -40.45376 | 67.76857 | 37549 ft | 374 kts | 288° |
| 2026-05-06 14:35 | -40.44022 | 67.70305 | 37550 ft | 373 kts | 289° |
| 2026-05-06 14:35 | -40.42685 | 67.63723 | 37546 ft | 373 kts | 288° |
| 2026-05-06 14:36 | -40.41362 | 67.57152 | 37552 ft | 373 kts | 288° |
| 2026-05-06 14:36 | -40.40027 | 67.50573 | 37560 ft | 372 kts | 288° |
| 2026-05-06 14:37 | -40.38698 | 67.44062 | 37559 ft | 372 kts | 288° |
| 2026-05-06 14:37 | -40.37353 | 67.37501 | 37547 ft | 372 kts | 288° |
| 2026-05-06 14:38 | -40.35999 | 67.30919 | 37552 ft | 373 kts | 288° |
| 2026-05-06 14:38 | -40.34640 | 67.24347 | 37556 ft | 373 kts | 289° |
| 2026-05-06 14:39 | -40.33277 | 67.17769 | 37568 ft | 374 kts | 289° |
| 2026-05-06 14:39 | -40.31907 | 67.11184 | 37567 ft | 375 kts | 289° |
| 2026-05-06 14:40 | -40.30538 | 67.04624 | 37569 ft | 376 kts | 289° |
| 2026-05-06 14:40 | -40.29153 | 66.98006 | 37573 ft | 376 kts | 289° |
| 2026-05-06 14:41 | -40.27762 | 66.91380 | 37579 ft | 377 kts | 289° |
| 2026-05-06 14:41 | -40.26367 | 66.84757 | 37581 ft | 378 kts | 289° |
| 2026-05-06 14:42 | -40.24964 | 66.78115 | 37588 ft | 378 kts | 289° |
| 2026-05-06 14:42 | -40.23554 | 66.71461 | 37581 ft | 379 kts | 289° |
| 2026-05-06 14:43 | -40.22137 | 66.64796 | 37586 ft | 380 kts | 289° |
| 2026-05-06 14:43 | -40.20724 | 66.58168 | 37591 ft | 381 kts | 289° |
| 2026-05-06 14:44 | -40.19294 | 66.51486 | 37592 ft | 382 kts | 289° |
| 2026-05-06 14:45 | -40.17137 | 66.41437 | 37597 ft | 383 kts | 289° |
| 2026-05-06 14:45 | -40.15688 | 66.34718 | 37601 ft | 384 kts | 289° |
| 2026-05-06 14:46 | -40.14230 | 66.27977 | 37606 ft | 385 kts | 289° |
| 2026-05-06 14:46 | -40.12763 | 66.21213 | 37610 ft | 386 kts | 289° |
| 2026-05-06 14:47 | -40.11294 | 66.14462 | 37609 ft | 387 kts | 289° |
| 2026-05-06 14:47 | -40.09812 | 66.07673 | 37613 ft | 388 kts | 289° |
| 2026-05-06 14:48 | -40.08326 | 66.00887 | 37614 ft | 389 kts | 289° |
| 2026-05-06 14:48 | -40.06841 | 65.94125 | 37615 ft | 390 kts | 289° |
| 2026-05-06 14:49 | -40.05336 | 65.87293 | 37616 ft | 391 kts | 289° |
| 2026-05-06 14:49 | -40.03826 | 65.80460 | 37620 ft | 393 kts | 289° |
| 2026-05-06 14:50 | -40.02560 | 65.74747 | 37619 ft | 394 kts | 289° |
| 2026-05-06 14:50 | -40.01029 | 65.67860 | 37620 ft | 396 kts | 289° |
| 2026-05-06 14:51 | -39.99238 | 65.59826 | 37625 ft | 397 kts | 288° |
| 2026-05-06 14:51 | -39.97939 | 65.54018 | 37629 ft | 399 kts | 288° |
| 2026-05-06 14:52 | -39.96389 | 65.47108 | 37640 ft | 400 kts | 288° |
| 2026-05-06 14:52 | -39.94817 | 65.40125 | 37645 ft | 401 kts | 288° |
| 2026-05-06 14:53 | -39.93237 | 65.33125 | 37647 ft | 402 kts | 288° |
| 2026-05-06 14:53 | -39.91659 | 65.26156 | 37649 ft | 404 kts | 288° |
| 2026-05-06 14:54 | -39.90064 | 65.19133 | 37653 ft | 405 kts | 288° |
| 2026-05-06 14:54 | -39.88461 | 65.12100 | 37654 ft | 406 kts | 288° |
| 2026-05-06 14:55 | -39.86859 | 65.05091 | 37658 ft | 407 kts | 288° |
| 2026-05-06 14:55 | -39.85239 | 64.98026 | 37658 ft | 408 kts | 288° |
| 2026-05-06 14:56 | -39.83611 | 64.90945 | 37662 ft | 409 kts | 288° |
| 2026-05-06 14:56 | -39.81971 | 64.83834 | 37667 ft | 410 kts | 287° |
| 2026-05-06 14:57 | -39.80324 | 64.76719 | 37672 ft | 411 kts | 287° |
| 2026-05-06 14:57 | -39.78669 | 64.69591 | 37676 ft | 412 kts | 287° |
| 2026-05-06 14:58 | -39.77009 | 64.62463 | 37683 ft | 413 kts | 287° |
| 2026-05-06 14:58 | -39.75337 | 64.55307 | 37681 ft | 414 kts | 287° |
| 2026-05-06 14:59 | -39.73655 | 64.48125 | 37686 ft | 415 kts | 287° |
| 2026-05-06 14:59 | -39.71979 | 64.40997 | 37687 ft | 416 kts | 287° |
| 2026-05-06 15:00 | -39.70284 | 64.33808 | 37691 ft | 416 kts | 287° |
| 2026-05-06 15:00 | -39.68578 | 64.26598 | 37698 ft | 417 kts | 286° |
| 2026-05-06 15:01 | -39.66872 | 64.19405 | 37703 ft | 417 kts | 286° |
| 2026-05-06 15:01 | -39.65165 | 64.12234 | 37709 ft | 418 kts | 286° |
| 2026-05-06 15:02 | -39.63444 | 64.05026 | 37707 ft | 418 kts | 286° |
| 2026-05-06 15:02 | -39.61719 | 63.97819 | 37716 ft | 418 kts | 285° |
| 2026-05-06 15:03 | -39.59983 | 63.90594 | 37717 ft | 418 kts | 285° |
| 2026-05-06 15:03 | -39.58250 | 63.83399 | 37716 ft | 419 kts | 285° |
| 2026-05-06 15:04 | -39.56509 | 63.76195 | 37722 ft | 419 kts | 285° |
| 2026-05-06 15:04 | -39.54762 | 63.68991 | 37725 ft | 419 kts | 285° |
| 2026-05-06 15:05 | -39.53024 | 63.61841 | 37732 ft | 419 kts | 285° |
| 2026-05-06 15:05 | -39.51268 | 63.54642 | 37732 ft | 419 kts | 285° |
| 2026-05-06 15:06 | -39.49504 | 63.47432 | 37736 ft | 419 kts | 285° |
| 2026-05-06 15:06 | -39.47741 | 63.40248 | 37739 ft | 419 kts | 285° |
| 2026-05-06 15:07 | -39.45978 | 63.33082 | 37734 ft | 419 kts | 285° |
| 2026-05-06 15:07 | -39.44202 | 63.25890 | 37728 ft | 420 kts | 285° |
| 2026-05-06 15:08 | -39.42425 | 63.18711 | 37733 ft | 420 kts | 285° |
| 2026-05-06 15:08 | -39.40639 | 63.11519 | 37736 ft | 420 kts | 285° |
| 2026-05-06 15:09 | -39.38843 | 63.04310 | 37754 ft | 421 kts | 285° |
| 2026-05-06 15:09 | -39.37045 | 62.97115 | 37759 ft | 421 kts | 285° |
| 2026-05-06 15:10 | -39.35239 | 62.89906 | 37763 ft | 421 kts | 285° |
| 2026-05-06 15:10 | -39.33437 | 62.82735 | 37765 ft | 421 kts | 285° |
| 2026-05-06 15:11 | -39.31622 | 62.75533 | 37774 ft | 422 kts | 285° |
| 2026-05-06 15:11 | -39.29801 | 62.68331 | 37770 ft | 422 kts | 284° |
| 2026-05-06 15:12 | -39.27975 | 62.61131 | 37777 ft | 422 kts | 284° |
| 2026-05-06 15:12 | -39.26145 | 62.53934 | 37783 ft | 422 kts | 284° |
| 2026-05-06 15:13 | -39.24311 | 62.46743 | 37786 ft | 422 kts | 284° |
| 2026-05-06 15:13 | -39.22471 | 62.39550 | 37791 ft | 422 kts | 284° |
| 2026-05-06 15:14 | -39.20638 | 62.32405 | 37791 ft | 422 kts | 284° |
| 2026-05-06 15:14 | -39.18782 | 62.25194 | 37793 ft | 422 kts | 284° |
| 2026-05-06 15:15 | -39.16930 | 62.18016 | 37796 ft | 422 kts | 284° |
| 2026-05-06 15:15 | -39.15069 | 62.10824 | 37800 ft | 423 kts | 284° |
| 2026-05-06 15:16 | -39.13206 | 62.03646 | 37808 ft | 423 kts | 284° |
| 2026-05-06 15:16 | -39.11334 | 61.96454 | 37814 ft | 423 kts | 284° |
| 2026-05-06 15:17 | -39.09462 | 61.89283 | 37817 ft | 423 kts | 284° |
| 2026-05-06 15:17 | -39.07582 | 61.82106 | 37812 ft | 423 kts | 284° |
| 2026-05-06 15:18 | -39.05713 | 61.74988 | 37831 ft | 423 kts | 284° |
| 2026-05-06 15:18 | -39.03818 | 61.67788 | 37820 ft | 423 kts | 284° |
| 2026-05-06 15:19 | -39.01936 | 61.60662 | 37832 ft | 423 kts | 284° |
| 2026-05-06 15:19 | -39.00037 | 61.53488 | 37835 ft | 423 kts | 284° |
| 2026-05-06 15:20 | -38.98143 | 61.46343 | 37838 ft | 423 kts | 284° |
| 2026-05-06 15:20 | -38.96239 | 61.39177 | 37842 ft | 423 kts | 283° |
| 2026-05-06 15:21 | -38.94334 | 61.32025 | 37845 ft | 423 kts | 283° |
| 2026-05-06 15:21 | -38.92501 | 61.24865 | 37845 ft | 420 kts | 280° |
| 2026-05-06 15:22 | -38.91090 | 61.17583 | 37848 ft | 419 kts | 279° |
| 2026-05-06 15:22 | -38.89679 | 61.10299 | 37856 ft | 420 kts | 279° |
| 2026-05-06 15:23 | -38.88229 | 61.03078 | 37859 ft | 420 kts | 279° |
| 2026-05-06 15:23 | -38.86751 | 60.95806 | 37867 ft | 421 kts | 279° |
| 2026-05-06 15:24 | -38.85262 | 60.88520 | 37867 ft | 421 kts | 279° |
| 2026-05-06 15:24 | -38.83774 | 60.81263 | 37870 ft | 421 kts | 279° |
| 2026-05-06 15:25 | -38.82279 | 60.73999 | 37876 ft | 421 kts | 279° |
| 2026-05-06 15:25 | -38.80793 | 60.66801 | 37879 ft | 421 kts | 279° |
| 2026-05-06 15:26 | -38.79294 | 60.59560 | 37883 ft | 420 kts | 279° |
| 2026-05-06 15:26 | -38.77783 | 60.52289 | 37887 ft | 420 kts | 279° |
| 2026-05-06 15:27 | -38.76271 | 60.45041 | 37886 ft | 420 kts | 279° |
| 2026-05-06 15:27 | -38.74757 | 60.37804 | 37894 ft | 421 kts | 279° |
| 2026-05-06 15:28 | -38.73245 | 60.30603 | 37896 ft | 421 kts | 279° |
| 2026-05-06 15:28 | -38.71721 | 60.23366 | 37903 ft | 421 kts | 279° |
| 2026-05-06 15:29 | -38.70188 | 60.16113 | 37905 ft | 421 kts | 279° |
| 2026-05-06 15:29 | -38.68657 | 60.08893 | 37909 ft | 421 kts | 279° |
| 2026-05-06 15:30 | -38.67127 | 60.01703 | 37913 ft | 421 kts | 279° |
| 2026-05-06 15:30 | -38.65582 | 59.94466 | 37920 ft | 421 kts | 279° |
| 2026-05-06 15:31 | -38.64036 | 59.87248 | 37923 ft | 421 kts | 278° |
| 2026-05-06 15:31 | -38.62484 | 59.80023 | 37915 ft | 421 kts | 278° |
| 2026-05-06 15:32 | -38.60144 | 59.69183 | 37937 ft | 421 kts | 278° |
| 2026-05-06 15:32 | -38.58837 | 59.63148 | 37943 ft | 421 kts | 278° |
| 2026-05-06 15:33 | -38.57014 | 59.54761 | 37939 ft | 421 kts | 278° |
| 2026-05-06 15:33 | -38.55443 | 59.47554 | 37947 ft | 421 kts | 278° |
| 2026-05-06 15:34 | -38.54132 | 59.41562 | 37950 ft | 420 kts | 278° |
| 2026-05-06 15:34 | -38.52556 | 59.34377 | 37948 ft | 420 kts | 278° |
| 2026-05-06 15:35 | -38.50971 | 59.27176 | 37957 ft | 420 kts | 278° |
| 2026-05-06 15:35 | -38.49383 | 59.19983 | 37960 ft | 420 kts | 278° |
| 2026-05-06 15:36 | -38.47791 | 59.12796 | 37981 ft | 420 kts | 278° |
| 2026-05-06 15:36 | -38.46191 | 59.05594 | 37981 ft | 420 kts | 278° |
| 2026-05-06 15:37 | -38.44601 | 58.98462 | 37971 ft | 420 kts | 277° |
| 2026-05-06 15:37 | -38.43000 | 58.91301 | 37977 ft | 420 kts | 277° |
| 2026-05-06 15:38 | -38.41395 | 58.84150 | 37978 ft | 419 kts | 277° |
| 2026-05-06 15:38 | -38.39789 | 58.77012 | 37986 ft | 419 kts | 277° |
| 2026-05-06 15:39 | -38.38173 | 58.69854 | 37987 ft | 419 kts | 277° |
| 2026-05-06 15:39 | -38.36562 | 58.62740 | 37994 ft | 418 kts | 277° |
| 2026-05-06 15:40 | -38.34944 | 58.55614 | 37991 ft | 418 kts | 277° |
| 2026-05-06 15:40 | -38.33326 | 58.48516 | 37997 ft | 418 kts | 277° |
| 2026-05-06 15:41 | -38.31700 | 58.41403 | 38001 ft | 417 kts | 277° |
| 2026-05-06 15:41 | -38.30081 | 58.34339 | 38002 ft | 417 kts | 277° |
| 2026-05-06 15:42 | -38.28445 | 58.27225 | 38008 ft | 416 kts | 277° |
| 2026-05-06 15:42 | -38.26822 | 58.20192 | 38012 ft | 416 kts | 277° |
| 2026-05-06 15:43 | -38.25190 | 58.13140 | 38015 ft | 416 kts | 276° |
| 2026-05-06 15:43 | -38.23548 | 58.06064 | 38015 ft | 415 kts | 276° |
| 2026-05-06 15:44 | -38.21909 | 57.99023 | 38017 ft | 415 kts | 276° |
| 2026-05-06 15:44 | -38.20279 | 57.92042 | 38022 ft | 414 kts | 276° |
| 2026-05-06 15:45 | -38.18632 | 57.85009 | 38023 ft | 414 kts | 276° |
| 2026-05-06 15:45 | -38.16984 | 57.77992 | 38021 ft | 414 kts | 276° |
| 2026-05-06 15:46 | -38.15333 | 57.70982 | 38024 ft | 414 kts | 276° |
| 2026-05-06 15:46 | -38.13695 | 57.64051 | 38037 ft | 413 kts | 276° |
| 2026-05-06 15:47 | -38.12018 | 57.56975 | 38035 ft | 413 kts | 277° |
| 2026-05-06 15:47 | -38.10368 | 57.50032 | 38040 ft | 413 kts | 277° |
| 2026-05-06 15:48 | -38.08703 | 57.43051 | 38045 ft | 413 kts | 277° |
| 2026-05-06 15:48 | -38.07024 | 57.36026 | 38056 ft | 413 kts | 277° |
| 2026-05-06 15:49 | -38.05358 | 57.29079 | 38059 ft | 413 kts | 277° |
| 2026-05-06 15:49 | -38.03683 | 57.22114 | 38052 ft | 413 kts | 277° |
| 2026-05-06 15:50 | -38.02001 | 57.15139 | 38070 ft | 413 kts | 277° |
| 2026-05-06 15:50 | -38.00324 | 57.08192 | 38065 ft | 412 kts | 277° |
| 2026-05-06 15:51 | -37.98640 | 57.01235 | 38068 ft | 412 kts | 277° |
| 2026-05-06 15:51 | -37.96934 | 56.94296 | 38070 ft | 412 kts | 277° |
| 2026-05-06 15:52 | -37.95206 | 56.87361 | 38070 ft | 412 kts | 277° |
| 2026-05-06 15:52 | -37.93495 | 56.80471 | 38077 ft | 412 kts | 277° |
| 2026-05-06 15:53 | -37.91773 | 56.73554 | 38082 ft | 412 kts | 278° |
| 2026-05-06 15:53 | -37.90048 | 56.66641 | 38088 ft | 412 kts | 278° |
| 2026-05-06 15:54 | -37.88320 | 56.59741 | 38091 ft | 411 kts | 278° |
| 2026-05-06 15:54 | -37.86582 | 56.52820 | 38094 ft | 411 kts | 278° |
| 2026-05-06 15:55 | -37.84846 | 56.45923 | 38091 ft | 411 kts | 278° |
| 2026-05-06 15:55 | -37.83115 | 56.39068 | 38112 ft | 411 kts | 278° |
| 2026-05-06 15:56 | -37.81371 | 56.32177 | 38108 ft | 411 kts | 278° |
| 2026-05-06 15:56 | -37.79621 | 56.25286 | 38110 ft | 411 kts | 278° |
| 2026-05-06 15:57 | -37.77868 | 56.18400 | 38116 ft | 411 kts | 278° |
| 2026-05-06 15:57 | -37.76122 | 56.11557 | 38120 ft | 411 kts | 278° |
| 2026-05-06 15:58 | -37.74365 | 56.04695 | 38125 ft | 410 kts | 278° |
| 2026-05-06 15:58 | -37.72606 | 55.97846 | 38128 ft | 410 kts | 278° |
| 2026-05-06 15:59 | -37.70842 | 55.90992 | 38128 ft | 409 kts | 278° |
| 2026-05-06 15:59 | -37.69075 | 55.84146 | 38129 ft | 409 kts | 278° |
| 2026-05-06 16:00 | -37.67314 | 55.77338 | 38128 ft | 408 kts | 279° |
| 2026-05-06 16:00 | -37.65544 | 55.70516 | 38123 ft | 408 kts | 278° |
| 2026-05-06 16:01 | -37.63776 | 55.63723 | 38138 ft | 408 kts | 278° |
| 2026-05-06 16:01 | -37.62011 | 55.56955 | 38135 ft | 407 kts | 278° |
| 2026-05-06 16:02 | -37.60241 | 55.50189 | 38137 ft | 407 kts | 278° |
| 2026-05-06 16:02 | -37.58458 | 55.43391 | 38148 ft | 406 kts | 278° |
| 2026-05-06 16:03 | -37.56691 | 55.36672 | 38140 ft | 406 kts | 278° |
| 2026-05-06 16:03 | -37.54907 | 55.29905 | 38151 ft | 405 kts | 278° |
| 2026-05-06 16:04 | -37.53126 | 55.23167 | 38152 ft | 405 kts | 278° |
| 2026-05-06 16:04 | -37.51350 | 55.16464 | 38153 ft | 405 kts | 279° |
| 2026-05-06 16:05 | -37.49569 | 55.09763 | 38151 ft | 404 kts | 279° |
| 2026-05-06 16:05 | -37.47774 | 55.03027 | 38166 ft | 404 kts | 279° |
| 2026-05-06 16:06 | -37.45983 | 54.96320 | 38153 ft | 404 kts | 279° |
| 2026-05-06 16:06 | -37.44189 | 54.89624 | 38171 ft | 403 kts | 279° |
| 2026-05-06 16:07 | -37.42396 | 54.82947 | 38170 ft | 403 kts | 279° |
| 2026-05-06 16:07 | -37.40613 | 54.76324 | 38176 ft | 402 kts | 279° |
| 2026-05-06 16:08 | -37.38817 | 54.69668 | 38177 ft | 401 kts | 279° |
| 2026-05-06 16:08 | -37.37024 | 54.63042 | 38180 ft | 400 kts | 279° |
| 2026-05-06 16:09 | -37.35229 | 54.56426 | 38182 ft | 399 kts | 279° |
| 2026-05-06 16:09 | -37.33429 | 54.49804 | 38179 ft | 398 kts | 279° |
| 2026-05-06 16:10 | -37.31649 | 54.43261 | 38197 ft | 398 kts | 279° |
| 2026-05-06 16:10 | -37.30087 | 54.36651 | 38191 ft | 393 kts | 276° |
| 2026-05-06 16:11 | -37.28679 | 54.30047 | 38190 ft | 392 kts | 276° |
| 2026-05-06 16:11 | -37.27228 | 54.23446 | 38192 ft | 392 kts | 277° |
| 2026-05-06 16:12 | -37.25747 | 54.16807 | 38192 ft | 391 kts | 277° |
| 2026-05-06 16:12 | -37.24274 | 54.10231 | 38195 ft | 391 kts | 277° |
| 2026-05-06 16:13 | -37.22808 | 54.03713 | 38195 ft | 390 kts | 277° |
| 2026-05-06 16:13 | -37.21330 | 53.97168 | 38198 ft | 390 kts | 277° |
| 2026-05-06 16:14 | -37.19850 | 53.90633 | 38196 ft | 389 kts | 277° |
| 2026-05-06 16:14 | -37.18372 | 53.84126 | 38199 ft | 389 kts | 277° |
| 2026-05-06 16:15 | -37.16879 | 53.77567 | 38193 ft | 389 kts | 277° |
| 2026-05-06 16:15 | -37.15399 | 53.71086 | 38199 ft | 389 kts | 277° |
| 2026-05-06 16:16 | -37.13905 | 53.64562 | 38195 ft | 389 kts | 277° |
| 2026-05-06 16:16 | -37.12653 | 53.59112 | 38206 ft | 389 kts | 277° |
| 2026-05-06 16:17 | -37.11150 | 53.52578 | 38203 ft | 389 kts | 278° |
| 2026-05-06 16:17 | -37.09646 | 53.46065 | 38210 ft | 389 kts | 278° |
| 2026-05-06 16:18 | -37.08139 | 53.39553 | 38208 ft | 389 kts | 278° |
| 2026-05-06 16:18 | -37.06636 | 53.33077 | 38221 ft | 390 kts | 278° |
| 2026-05-06 16:19 | -37.05119 | 53.26557 | 38215 ft | 390 kts | 278° |
| 2026-05-06 16:19 | -37.03599 | 53.20045 | 38232 ft | 390 kts | 278° |
| 2026-05-06 16:20 | -37.02070 | 53.13509 | 38230 ft | 390 kts | 278° |
| 2026-05-06 16:20 | -37.00537 | 53.06979 | 38228 ft | 390 kts | 278° |
| 2026-05-06 16:21 | -36.99006 | 53.00475 | 38228 ft | 390 kts | 278° |
| 2026-05-06 16:21 | -36.97472 | 52.93971 | 38234 ft | 389 kts | 278° |
| 2026-05-06 16:22 | -36.95934 | 52.87468 | 38232 ft | 389 kts | 278° |
| 2026-05-06 16:22 | -36.94407 | 52.81031 | 38234 ft | 389 kts | 278° |
| 2026-05-06 16:23 | -36.92864 | 52.74546 | 38235 ft | 388 kts | 278° |
| 2026-05-06 16:23 | -36.91324 | 52.68087 | 38239 ft | 388 kts | 278° |
| 2026-05-06 16:24 | -36.89774 | 52.61606 | 38240 ft | 388 kts | 278° |
| 2026-05-06 16:24 | -36.88234 | 52.55186 | 38242 ft | 388 kts | 278° |
| 2026-05-06 16:25 | -36.86687 | 52.48750 | 38249 ft | 387 kts | 278° |
| 2026-05-06 16:25 | -36.85135 | 52.42312 | 38243 ft | 387 kts | 278° |
| 2026-05-06 16:26 | -36.83584 | 52.35894 | 38256 ft | 387 kts | 279° |
| 2026-05-06 16:26 | -36.82020 | 52.29437 | 38258 ft | 387 kts | 278° |
| 2026-05-06 16:27 | -36.80461 | 52.23022 | 38256 ft | 386 kts | 279° |
| 2026-05-06 16:27 | -36.78895 | 52.16594 | 38255 ft | 386 kts | 279° |
| 2026-05-06 16:28 | -36.77331 | 52.10187 | 38251 ft | 386 kts | 279° |
| 2026-05-06 16:28 | -36.75760 | 52.03775 | 38252 ft | 386 kts | 279° |
| 2026-05-06 16:29 | -36.74212 | 51.97465 | 38251 ft | 385 kts | 279° |
| 2026-05-06 16:29 | -36.72637 | 51.91069 | 38258 ft | 385 kts | 279° |
| 2026-05-06 16:30 | -36.71324 | 51.85747 | 38258 ft | 385 kts | 279° |
| 2026-05-06 16:30 | -36.69481 | 51.78296 | 38262 ft | 385 kts | 279° |
| 2026-05-06 16:31 | -36.67902 | 51.71927 | 38263 ft | 384 kts | 279° |
| 2026-05-06 16:31 | -36.66329 | 51.65601 | 38253 ft | 384 kts | 279° |
| 2026-05-06 16:32 | -36.64740 | 51.59229 | 38255 ft | 384 kts | 279° |
| 2026-05-06 16:32 | -36.63152 | 51.52872 | 38260 ft | 384 kts | 279° |
| 2026-05-06 16:33 | -36.61570 | 51.46561 | 38260 ft | 384 kts | 279° |
| 2026-05-06 16:34 | -36.59180 | 51.37053 | 38261 ft | 384 kts | 279° |
| 2026-05-06 16:34 | -36.57581 | 51.30723 | 38253 ft | 383 kts | 277° |
| 2026-05-06 16:35 | -36.55986 | 51.24405 | 38251 ft | 383 kts | 278° |
| 2026-05-06 16:35 | -36.54386 | 51.18088 | 38253 ft | 384 kts | 278° |
| 2026-05-06 16:36 | -36.52771 | 51.11730 | 38261 ft | 385 kts | 278° |
| 2026-05-06 16:36 | -36.51152 | 51.05373 | 38265 ft | 386 kts | 278° |
| 2026-05-06 16:37 | -36.49534 | 50.99035 | 38272 ft | 387 kts | 278° |
| 2026-05-06 16:37 | -36.47895 | 50.92633 | 38275 ft | 388 kts | 278° |
| 2026-05-06 16:38 | -36.46256 | 50.86247 | 38278 ft | 389 kts | 279° |
| 2026-05-06 16:38 | -36.44608 | 50.79839 | 38281 ft | 390 kts | 279° |
| 2026-05-06 16:39 | -36.42952 | 50.73420 | 38282 ft | 390 kts | 279° |
| 2026-05-06 16:39 | -36.41288 | 50.66979 | 38323 ft | 394 kts | 279° |
| 2026-05-06 16:39 | -36.40449 | 50.63738 | 38862 ft | 392 kts | 279° |
| 2026-05-06 16:40 | -36.39615 | 50.60534 | 39356 ft | 390 kts | 279° |
| 2026-05-06 16:40 | -36.38780 | 50.57318 | 39636 ft | 392 kts | 279° |
| 2026-05-06 16:40 | -36.37942 | 50.54090 | 39948 ft | 393 kts | 280° |
| 2026-05-06 16:40 | -36.37100 | 50.50849 | 40210 ft | 396 kts | 280° |
| 2026-05-06 16:41 | -36.36248 | 50.47575 | 40279 ft | 396 kts | 280° |
| 2026-05-06 16:41 | -36.34561 | 50.41135 | 40274 ft | 393 kts | 280° |
| 2026-05-06 16:42 | -36.32878 | 50.34698 | 40277 ft | 394 kts | 280° |
| 2026-05-06 16:42 | -36.31181 | 50.28233 | 40279 ft | 395 kts | 281° |
| 2026-05-06 16:43 | -36.29478 | 50.21762 | 40277 ft | 395 kts | 281° |
| 2026-05-06 16:43 | -36.27772 | 50.15294 | 40279 ft | 395 kts | 281° |
| 2026-05-06 16:44 | -36.26057 | 50.08808 | 40278 ft | 395 kts | 281° |
| 2026-05-06 16:44 | -36.24342 | 50.02337 | 40279 ft | 396 kts | 281° |
| 2026-05-06 16:45 | -36.22619 | 49.95851 | 40274 ft | 396 kts | 281° |
| 2026-05-06 16:45 | -36.20893 | 49.89371 | 40279 ft | 397 kts | 281° |
| 2026-05-06 16:46 | -36.19171 | 49.82922 | 40277 ft | 397 kts | 281° |
| 2026-05-06 16:46 | -36.17434 | 49.76431 | 40275 ft | 398 kts | 281° |
| 2026-05-06 16:47 | -36.15688 | 49.69926 | 40282 ft | 398 kts | 281° |
| 2026-05-06 16:47 | -36.13937 | 49.63416 | 40288 ft | 399 kts | 282° |
| 2026-05-06 16:48 | -36.12180 | 49.56901 | 40283 ft | 399 kts | 282° |
| 2026-05-06 16:48 | -36.10419 | 49.50387 | 40282 ft | 400 kts | 282° |
| 2026-05-06 16:49 | -36.08654 | 49.43874 | 40278 ft | 400 kts | 282° |
| 2026-05-06 16:49 | -36.06894 | 49.37393 | 40279 ft | 401 kts | 282° |
| 2026-05-06 16:50 | -36.05114 | 49.30858 | 40283 ft | 401 kts | 282° |
| 2026-05-06 16:50 | -36.03329 | 49.24319 | 40284 ft | 402 kts | 282° |
| 2026-05-06 16:51 | -36.01534 | 49.17760 | 40283 ft | 402 kts | 282° |
| 2026-05-06 16:51 | -35.99735 | 49.11204 | 40285 ft | 403 kts | 282° |
| 2026-05-06 16:52 | -35.97944 | 49.04687 | 40286 ft | 403 kts | 282° |
| 2026-05-06 16:52 | -35.96133 | 48.98118 | 40283 ft | 404 kts | 282° |
| 2026-05-06 16:53 | -35.94319 | 48.91550 | 40280 ft | 404 kts | 282° |
| 2026-05-06 16:53 | -35.92502 | 48.84980 | 40278 ft | 405 kts | 283° |
| 2026-05-06 16:54 | -35.90678 | 48.78396 | 40281 ft | 405 kts | 283° |
| 2026-05-06 16:54 | -35.88859 | 48.71847 | 40273 ft | 406 kts | 283° |
| 2026-05-06 16:55 | -35.87086 | 48.65232 | 40276 ft | 405 kts | 281° |
| 2026-05-06 16:55 | -35.85443 | 48.58577 | 40283 ft | 405 kts | 281° |
| 2026-05-06 16:56 | -35.83794 | 48.51934 | 40280 ft | 406 kts | 281° |
| 2026-05-06 16:56 | -35.82127 | 48.45283 | 40279 ft | 406 kts | 281° |
| 2026-05-06 16:57 | -35.80451 | 48.38621 | 40277 ft | 407 kts | 281° |
| 2026-05-06 16:57 | -35.78781 | 48.32001 | 40279 ft | 407 kts | 282° |
| 2026-05-06 16:58 | -35.77095 | 48.25343 | 40277 ft | 407 kts | 282° |
| 2026-05-06 16:58 | -35.75397 | 48.18664 | 40278 ft | 408 kts | 282° |
| 2026-05-06 16:59 | -35.73701 | 48.12009 | 40280 ft | 408 kts | 282° |
| 2026-05-06 16:59 | -35.72280 | 48.06444 | 40281 ft | 409 kts | 282° |
| 2026-05-06 17:00 | -35.70570 | 47.99767 | 40281 ft | 409 kts | 282° |
| 2026-05-06 17:00 | -35.68855 | 47.93086 | 40281 ft | 410 kts | 282° |
| 2026-05-06 17:01 | -35.67131 | 47.86387 | 40284 ft | 410 kts | 282° |
| 2026-05-06 17:01 | -35.65408 | 47.79709 | 40277 ft | 410 kts | 282° |
| 2026-05-06 17:02 | -35.63678 | 47.73024 | 40275 ft | 411 kts | 282° |
| 2026-05-06 17:02 | -35.61936 | 47.66308 | 40275 ft | 411 kts | 282° |
| 2026-05-06 17:03 | -35.60197 | 47.59618 | 40278 ft | 412 kts | 282° |
| 2026-05-06 17:03 | -35.58453 | 47.52934 | 40284 ft | 411 kts | 282° |
| 2026-05-06 17:04 | -35.56702 | 47.46227 | 40283 ft | 413 kts | 282° |
| 2026-05-06 17:04 | -35.54943 | 47.39522 | 40278 ft | 412 kts | 283° |
| 2026-05-06 17:05 | -35.53168 | 47.32760 | 40278 ft | 413 kts | 283° |
| 2026-05-06 17:05 | -35.51414 | 47.26102 | 40279 ft | 414 kts | 283° |
| 2026-05-06 17:06 | -35.49622 | 47.19317 | 40279 ft | 414 kts | 283° |
| 2026-05-06 17:06 | -35.47850 | 47.12621 | 40278 ft | 415 kts | 283° |
| 2026-05-06 17:07 | -35.46063 | 47.05887 | 40280 ft | 415 kts | 283° |
| 2026-05-06 17:07 | -35.44268 | 46.99141 | 40273 ft | 415 kts | 283° |
| 2026-05-06 17:08 | -35.42472 | 46.92408 | 40277 ft | 415 kts | 283° |
| 2026-05-06 17:08 | -35.40680 | 46.85707 | 40281 ft | 415 kts | 283° |
| 2026-05-06 17:09 | -35.38879 | 46.78990 | 40277 ft | 416 kts | 283° |
| 2026-05-06 17:09 | -35.37069 | 46.72258 | 40271 ft | 416 kts | 284° |
| 2026-05-06 17:10 | -35.35254 | 46.65518 | 40276 ft | 416 kts | 284° |
| 2026-05-06 17:10 | -35.33436 | 46.58791 | 40276 ft | 416 kts | 284° |
| 2026-05-06 17:11 | -35.31626 | 46.52105 | 40276 ft | 416 kts | 284° |
| 2026-05-06 17:11 | -35.29802 | 46.45386 | 40274 ft | 416 kts | 284° |
| 2026-05-06 17:12 | -35.27967 | 46.38643 | 40271 ft | 416 kts | 284° |
| 2026-05-06 17:12 | -35.26134 | 46.31925 | 40270 ft | 416 kts | 284° |
| 2026-05-06 17:13 | -35.24297 | 46.25206 | 40275 ft | 416 kts | 284° |
| 2026-05-06 17:13 | -35.22453 | 46.18483 | 40267 ft | 417 kts | 284° |
| 2026-05-06 17:14 | -35.20610 | 46.11775 | 40263 ft | 417 kts | 285° |
| 2026-05-06 17:14 | -35.18759 | 46.05058 | 40263 ft | 417 kts | 285° |
| 2026-05-06 17:15 | -35.16903 | 45.98337 | 40263 ft | 417 kts | 285° |
| 2026-05-06 17:15 | -35.15038 | 45.91603 | 40272 ft | 417 kts | 285° |
| 2026-05-06 17:16 | -35.13190 | 45.84946 | 40265 ft | 417 kts | 285° |
| 2026-05-06 17:16 | -35.11318 | 45.78217 | 40267 ft | 417 kts | 285° |
| 2026-05-06 17:17 | -35.09446 | 45.71506 | 40264 ft | 417 kts | 285° |
| 2026-05-06 17:17 | -35.07571 | 45.64800 | 40262 ft | 417 kts | 285° |
| 2026-05-06 17:18 | -35.05692 | 45.58096 | 40264 ft | 417 kts | 285° |
| 2026-05-06 17:18 | -35.03810 | 45.51395 | 40270 ft | 417 kts | 286° |
| 2026-05-06 17:19 | -35.01923 | 45.44698 | 40258 ft | 417 kts | 286° |
| 2026-05-06 17:19 | -35.00035 | 45.38008 | 40260 ft | 417 kts | 286° |
| 2026-05-06 17:20 | -34.98140 | 45.31312 | 40254 ft | 417 kts | 286° |
| 2026-05-06 17:20 | -34.96242 | 45.24624 | 40252 ft | 417 kts | 286° |
| 2026-05-06 17:21 | -34.94346 | 45.17953 | 40242 ft | 417 kts | 286° |
| 2026-05-06 17:21 | -34.92446 | 45.11290 | 40239 ft | 416 kts | 286° |
| 2026-05-06 17:22 | -34.90542 | 45.04625 | 40238 ft | 416 kts | 286° |
| 2026-05-06 17:22 | -34.88647 | 44.98007 | 40248 ft | 416 kts | 286° |
| 2026-05-06 17:23 | -34.86737 | 44.91353 | 40249 ft | 416 kts | 287° |
| 2026-05-06 17:23 | -34.84823 | 44.84701 | 40246 ft | 416 kts | 287° |
| 2026-05-06 17:24 | -34.82900 | 44.78032 | 40247 ft | 416 kts | 287° |
| 2026-05-06 17:24 | -34.80986 | 44.71415 | 40247 ft | 416 kts | 287° |
| 2026-05-06 17:25 | -34.79060 | 44.64766 | 40244 ft | 416 kts | 287° |
| 2026-05-06 17:25 | -34.77133 | 44.58131 | 40239 ft | 416 kts | 287° |
| 2026-05-06 17:26 | -34.75200 | 44.51493 | 40237 ft | 416 kts | 287° |
| 2026-05-06 17:26 | -34.73270 | 44.44879 | 40235 ft | 416 kts | 287° |
| 2026-05-06 17:27 | -34.71330 | 44.38245 | 40231 ft | 416 kts | 287° |
| 2026-05-06 17:27 | -34.69397 | 44.31652 | 40236 ft | 416 kts | 287° |
| 2026-05-06 17:28 | -34.67448 | 44.25019 | 40231 ft | 416 kts | 287° |
| 2026-05-06 17:28 | -34.65499 | 44.18400 | 40231 ft | 416 kts | 287° |
| 2026-05-06 17:29 | -34.63544 | 44.11781 | 40229 ft | 416 kts | 288° |
| 2026-05-06 17:29 | -34.61602 | 44.05216 | 40228 ft | 416 kts | 288° |
| 2026-05-06 17:30 | -34.59643 | 43.98611 | 40226 ft | 416 kts | 288° |
| 2026-05-06 17:30 | -34.57676 | 43.91991 | 40225 ft | 416 kts | 288° |
| 2026-05-06 17:31 | -34.55708 | 43.85385 | 40221 ft | 416 kts | 288° |
| 2026-05-06 17:31 | -34.53733 | 43.78773 | 40217 ft | 416 kts | 288° |
| 2026-05-06 17:32 | -34.51772 | 43.72220 | 40213 ft | 416 kts | 288° |
| 2026-05-06 17:32 | -34.49792 | 43.65619 | 40215 ft | 416 kts | 288° |
| 2026-05-06 17:33 | -34.47810 | 43.59025 | 40212 ft | 416 kts | 288° |
| 2026-05-06 17:33 | -34.45826 | 43.52442 | 40209 ft | 416 kts | 288° |
| 2026-05-06 17:34 | -34.43836 | 43.45850 | 40207 ft | 416 kts | 288° |
| 2026-05-06 17:34 | -34.41859 | 43.39321 | 40201 ft | 416 kts | 289° |
| 2026-05-06 17:35 | -34.39861 | 43.32734 | 40201 ft | 416 kts | 289° |
| 2026-05-06 17:35 | -34.37862 | 43.26158 | 40198 ft | 416 kts | 289° |
| 2026-05-06 17:36 | -34.34858 | 43.16305 | 40196 ft | 416 kts | 289° |
| 2026-05-06 17:36 | -34.32847 | 43.09727 | 40191 ft | 416 kts | 289° |
| 2026-05-06 17:37 | -34.30850 | 43.03208 | 40187 ft | 416 kts | 289° |
| 2026-05-06 17:37 | -34.28833 | 42.96640 | 40187 ft | 416 kts | 289° |
| 2026-05-06 17:38 | -34.26819 | 42.90096 | 40182 ft | 416 kts | 289° |
| 2026-05-06 17:38 | -34.24794 | 42.83532 | 40183 ft | 416 kts | 289° |
| 2026-05-06 17:39 | -34.22782 | 42.77023 | 40178 ft | 415 kts | 289° |
| 2026-05-06 17:39 | -34.20754 | 42.70478 | 40173 ft | 415 kts | 290° |
| 2026-05-06 17:40 | -34.18726 | 42.63944 | 40171 ft | 415 kts | 290° |
| 2026-05-06 17:40 | -34.16693 | 42.57412 | 40170 ft | 415 kts | 290° |
| 2026-05-06 17:41 | -34.14655 | 42.50875 | 40171 ft | 415 kts | 290° |
| 2026-05-06 17:41 | -34.12962 | 42.45460 | 40164 ft | 415 kts | 290° |
| 2026-05-06 17:42 | -34.10918 | 42.38930 | 40163 ft | 415 kts | 290° |
| 2026-05-06 17:42 | -34.08540 | 42.31352 | 40159 ft | 415 kts | 290° |
| 2026-05-06 17:43 | -34.06824 | 42.25895 | 40158 ft | 415 kts | 290° |
| 2026-05-06 17:43 | -34.04772 | 42.19383 | 40152 ft | 415 kts | 290° |
| 2026-05-06 17:44 | -34.02732 | 42.12925 | 40147 ft | 415 kts | 290° |
| 2026-05-06 17:44 | -34.00675 | 42.06417 | 40149 ft | 415 kts | 291° |
| 2026-05-06 17:45 | -33.98625 | 41.99941 | 40143 ft | 415 kts | 291° |
| 2026-05-06 17:45 | -33.96563 | 41.93441 | 40139 ft | 415 kts | 291° |
| 2026-05-06 17:46 | -33.94496 | 41.86938 | 40134 ft | 415 kts | 291° |
| 2026-05-06 17:46 | -33.92226 | 41.80590 | 40135 ft | 415 kts | 296° |
| 2026-05-06 17:47 | -33.89612 | 41.74370 | 40134 ft | 416 kts | 296° |
| 2026-05-06 17:47 | -33.87036 | 41.68132 | 40130 ft | 416 kts | 296° |
| 2026-05-06 17:48 | -33.84460 | 41.61890 | 40126 ft | 416 kts | 296° |
| 2026-05-06 17:48 | -33.81897 | 41.55700 | 40129 ft | 416 kts | 296° |
| 2026-05-06 17:49 | -33.79293 | 41.49425 | 40125 ft | 416 kts | 296° |
| 2026-05-06 17:49 | -33.76715 | 41.43227 | 40120 ft | 416 kts | 297° |
| 2026-05-06 17:50 | -33.74120 | 41.37006 | 40118 ft | 416 kts | 297° |
| 2026-05-06 17:50 | -33.71522 | 41.30787 | 40115 ft | 416 kts | 297° |
| 2026-05-06 17:51 | -33.68923 | 41.24581 | 40112 ft | 416 kts | 297° |
| 2026-05-06 17:51 | -33.66321 | 41.18375 | 40107 ft | 416 kts | 297° |
| 2026-05-06 17:52 | -33.63707 | 41.12153 | 40104 ft | 416 kts | 297° |
| 2026-05-06 17:52 | -33.61097 | 41.05950 | 40098 ft | 416 kts | 297° |
| 2026-05-06 17:53 | -33.58493 | 40.99775 | 40095 ft | 417 kts | 297° |
| 2026-05-06 17:53 | -33.55872 | 40.93570 | 40095 ft | 417 kts | 297° |
| 2026-05-06 17:54 | -33.53237 | 40.87343 | 40095 ft | 418 kts | 298° |
| 2026-05-06 17:54 | -33.50604 | 40.81131 | 40093 ft | 419 kts | 298° |
| 2026-05-06 17:55 | -33.47958 | 40.74900 | 40095 ft | 420 kts | 298° |
| 2026-05-06 17:55 | -33.45318 | 40.68694 | 40087 ft | 420 kts | 298° |
| 2026-05-06 17:56 | -33.42659 | 40.62454 | 40087 ft | 421 kts | 298° |
| 2026-05-06 17:56 | -33.39994 | 40.56212 | 40084 ft | 421 kts | 298° |
| 2026-05-06 17:57 | -33.37323 | 40.49968 | 40083 ft | 421 kts | 298° |
| 2026-05-06 17:57 | -33.34646 | 40.43721 | 40074 ft | 422 kts | 298° |
| 2026-05-06 17:58 | -33.31984 | 40.37517 | 40070 ft | 422 kts | 298° |
| 2026-05-06 17:58 | -33.29298 | 40.31272 | 40069 ft | 422 kts | 298° |
| 2026-05-06 17:59 | -33.26604 | 40.25017 | 40065 ft | 423 kts | 298° |
| 2026-05-06 17:59 | -33.23909 | 40.18771 | 40062 ft | 423 kts | 298° |
| 2026-05-06 18:00 | -33.21203 | 40.12512 | 40062 ft | 423 kts | 298° |
| 2026-05-06 18:00 | -33.18514 | 40.06303 | 40058 ft | 423 kts | 298° |
| 2026-05-06 18:01 | -33.15811 | 40.00072 | 40064 ft | 423 kts | 298° |
| 2026-05-06 18:01 | -33.13095 | 39.93821 | 40056 ft | 423 kts | 298° |
| 2026-05-06 18:02 | -33.10368 | 39.87557 | 40052 ft | 423 kts | 298° |
| 2026-05-06 18:02 | -33.07670 | 39.81372 | 40048 ft | 423 kts | 298° |
| 2026-05-06 18:03 | -33.04953 | 39.75152 | 40048 ft | 423 kts | 298° |
| 2026-05-06 18:03 | -33.02229 | 39.68928 | 40048 ft | 423 kts | 298° |
| 2026-05-06 18:04 | -32.99509 | 39.62724 | 40042 ft | 422 kts | 299° |
| 2026-05-06 18:04 | -32.96790 | 39.56532 | 40041 ft | 422 kts | 299° |
| 2026-05-06 18:05 | -32.94063 | 39.50332 | 40040 ft | 421 kts | 299° |
| 2026-05-06 18:05 | -32.91365 | 39.44211 | 40037 ft | 421 kts | 299° |
| 2026-05-06 18:06 | -32.88644 | 39.38047 | 40033 ft | 420 kts | 299° |
| 2026-05-06 18:06 | -32.85920 | 39.31889 | 40025 ft | 420 kts | 299° |
| 2026-05-06 18:07 | -32.83201 | 39.25751 | 40018 ft | 419 kts | 299° |
| 2026-05-06 18:07 | -32.80479 | 39.19617 | 40011 ft | 419 kts | 299° |
| 2026-05-06 18:08 | -32.77772 | 39.13527 | 40012 ft | 419 kts | 299° |
| 2026-05-06 18:08 | -32.75047 | 39.07407 | 39997 ft | 419 kts | 300° |
| 2026-05-06 18:09 | -32.72319 | 39.01289 | 39986 ft | 419 kts | 300° |
| 2026-05-06 18:09 | -32.69588 | 38.95177 | 39978 ft | 419 kts | 300° |
| 2026-05-06 18:10 | -32.66852 | 38.89064 | 39973 ft | 419 kts | 300° |
| 2026-05-06 18:10 | -32.64127 | 38.82984 | 39967 ft | 420 kts | 300° |
| 2026-05-06 18:11 | -32.61370 | 38.76847 | 39970 ft | 422 kts | 300° |
| 2026-05-06 18:11 | -32.58602 | 38.70692 | 39972 ft | 423 kts | 300° |
| 2026-05-06 18:12 | -32.55825 | 38.64530 | 39981 ft | 425 kts | 300° |
| 2026-05-06 18:12 | -32.53032 | 38.58342 | 39986 ft | 426 kts | 300° |
| 2026-05-06 18:13 | -32.50246 | 38.52179 | 39990 ft | 427 kts | 300° |
| 2026-05-06 18:13 | -32.47436 | 38.45974 | 39987 ft | 427 kts | 300° |
| 2026-05-06 18:14 | -32.44622 | 38.39771 | 39976 ft | 428 kts | 300° |
| 2026-05-06 18:14 | -32.41799 | 38.33559 | 39977 ft | 427 kts | 300° |
| 2026-05-06 18:15 | -32.38981 | 38.27369 | 39970 ft | 427 kts | 300° |
| 2026-05-06 18:15 | -32.36157 | 38.21176 | 39962 ft | 427 kts | 300° |
| 2026-05-06 18:16 | -32.33350 | 38.15029 | 39959 ft | 427 kts | 300° |
| 2026-05-06 18:16 | -32.30522 | 38.08848 | 39951 ft | 427 kts | 300° |
| 2026-05-06 18:17 | -32.27692 | 38.02674 | 39944 ft | 427 kts | 300° |
| 2026-05-06 18:17 | -32.24854 | 37.96492 | 39937 ft | 427 kts | 300° |
| 2026-05-06 18:18 | -32.22035 | 37.90363 | 39932 ft | 427 kts | 300° |
| 2026-05-06 18:18 | -32.19203 | 37.84214 | 39932 ft | 427 kts | 301° |
| 2026-05-06 18:19 | -32.16351 | 37.78031 | 39935 ft | 427 kts | 301° |
| 2026-05-06 18:19 | -32.13506 | 37.71874 | 39930 ft | 427 kts | 301° |
| 2026-05-06 18:20 | -32.10659 | 37.65726 | 39931 ft | 427 kts | 301° |
| 2026-05-06 18:20 | -32.07805 | 37.59571 | 39934 ft | 427 kts | 301° |
| 2026-05-06 18:21 | -32.04967 | 37.53460 | 39933 ft | 426 kts | 301° |
| 2026-05-06 18:21 | -32.02118 | 37.47336 | 39928 ft | 425 kts | 301° |
| 2026-05-06 18:22 | -31.99274 | 37.41233 | 39927 ft | 424 kts | 301° |
| 2026-05-06 18:22 | -31.96429 | 37.35139 | 39926 ft | 423 kts | 301° |
| 2026-05-06 18:23 | -31.93589 | 37.29064 | 39923 ft | 422 kts | 301° |
| 2026-05-06 18:23 | -31.90772 | 37.23048 | 39914 ft | 422 kts | 301° |
| 2026-05-06 18:24 | -31.87931 | 37.16992 | 39916 ft | 420 kts | 301° |
| 2026-05-06 18:24 | -31.85127 | 37.11024 | 39913 ft | 419 kts | 301° |
| 2026-05-06 18:25 | -31.82298 | 37.05011 | 39911 ft | 418 kts | 301° |
| 2026-05-06 18:25 | -31.79477 | 36.99026 | 39902 ft | 418 kts | 301° |
| 2026-05-06 18:26 | -31.76657 | 36.93053 | 39902 ft | 417 kts | 301° |
| 2026-05-06 18:26 | -31.73846 | 36.87108 | 39895 ft | 416 kts | 302° |
| 2026-05-06 18:27 | -31.71034 | 36.81170 | 39891 ft | 415 kts | 302° |
| 2026-05-06 18:27 | -31.68233 | 36.75266 | 39887 ft | 415 kts | 302° |
| 2026-05-06 18:28 | -31.65426 | 36.69358 | 39891 ft | 414 kts | 302° |
| 2026-05-06 18:28 | -31.62621 | 36.63463 | 39888 ft | 413 kts | 302° |
| 2026-05-06 18:29 | -31.60265 | 36.58518 | 39865 ft | 413 kts | 302° |
| 2026-05-06 18:29 | -31.57483 | 36.52689 | 39871 ft | 413 kts | 302° |
| 2026-05-06 18:30 | -31.54666 | 36.46795 | 39866 ft | 413 kts | 302° |
| 2026-05-06 18:30 | -31.51860 | 36.40932 | 39865 ft | 412 kts | 302° |
| 2026-05-06 18:31 | -31.49047 | 36.35065 | 39866 ft | 412 kts | 302° |
| 2026-05-06 18:31 | -31.46235 | 36.29211 | 39859 ft | 412 kts | 302° |
| 2026-05-06 18:32 | -31.43436 | 36.23391 | 39860 ft | 412 kts | 302° |
| 2026-05-06 18:32 | -31.40623 | 36.17551 | 39850 ft | 412 kts | 302° |
| 2026-05-06 18:33 | -31.37798 | 36.11694 | 39846 ft | 412 kts | 303° |
| 2026-05-06 18:33 | -31.34972 | 36.05845 | 39839 ft | 413 kts | 303° |
| 2026-05-06 18:34 | -31.32128 | 35.99968 | 39856 ft | 416 kts | 303° |
| 2026-05-06 18:34 | -31.29283 | 35.94092 | 39852 ft | 416 kts | 303° |
| 2026-05-06 18:35 | -31.26437 | 35.88220 | 39852 ft | 416 kts | 303° |
| 2026-05-06 18:35 | -31.23578 | 35.82334 | 39848 ft | 417 kts | 303° |
| 2026-05-06 18:36 | -31.20665 | 35.76443 | 39846 ft | 416 kts | 306° |
| 2026-05-06 18:36 | -31.17390 | 35.70886 | 39846 ft | 414 kts | 310° |
| 2026-05-06 18:37 | -31.13920 | 35.65527 | 39843 ft | 414 kts | 310° |
| 2026-05-06 18:37 | -31.10466 | 35.60127 | 39844 ft | 414 kts | 310° |
| 2026-05-06 18:38 | -31.07029 | 35.54769 | 39848 ft | 414 kts | 310° |
| 2026-05-06 18:38 | -31.03573 | 35.49392 | 39844 ft | 414 kts | 310° |
| 2026-05-06 18:39 | -31.00110 | 35.44014 | 39842 ft | 414 kts | 310° |
| 2026-05-06 18:40 | -30.94909 | 35.35952 | 39849 ft | 414 kts | 311° |
| 2026-05-06 18:40 | -30.91465 | 35.30621 | 39843 ft | 414 kts | 311° |
| 2026-05-06 18:41 | -30.87997 | 35.25261 | 39840 ft | 413 kts | 311° |
| 2026-05-06 18:41 | -30.84534 | 35.19915 | 39843 ft | 413 kts | 311° |
| 2026-05-06 18:42 | -30.81069 | 35.14575 | 39843 ft | 412 kts | 311° |
| 2026-05-06 18:42 | -30.77629 | 35.09280 | 39838 ft | 412 kts | 311° |
| 2026-05-06 18:43 | -30.74181 | 35.03978 | 39840 ft | 411 kts | 311° |
| 2026-05-06 18:43 | -30.70725 | 34.98672 | 39835 ft | 411 kts | 311° |
| 2026-05-06 18:44 | -30.67274 | 34.93383 | 39834 ft | 410 kts | 311° |
| 2026-05-06 18:44 | -30.63861 | 34.88156 | 39830 ft | 409 kts | 311° |
| 2026-05-06 18:45 | -30.60394 | 34.82854 | 39827 ft | 408 kts | 311° |
| 2026-05-06 18:45 | -30.56966 | 34.77620 | 39823 ft | 408 kts | 311° |
| 2026-05-06 18:46 | -30.53526 | 34.72374 | 39820 ft | 407 kts | 311° |
| 2026-05-06 18:46 | -30.50109 | 34.67170 | 39817 ft | 407 kts | 311° |
| 2026-05-06 18:47 | -30.46678 | 34.61950 | 39815 ft | 406 kts | 311° |
| 2026-05-06 18:47 | -30.43246 | 34.56737 | 39809 ft | 406 kts | 311° |
| 2026-05-06 18:48 | -30.39859 | 34.51598 | 39801 ft | 406 kts | 311° |
| 2026-05-06 18:48 | -30.36433 | 34.46408 | 39798 ft | 405 kts | 311° |
| 2026-05-06 18:49 | -30.33026 | 34.41253 | 39792 ft | 405 kts | 311° |
| 2026-05-06 18:49 | -30.29606 | 34.36084 | 39789 ft | 405 kts | 311° |
| 2026-05-06 18:50 | -30.26164 | 34.30889 | 39786 ft | 405 kts | 311° |
| 2026-05-06 18:50 | -30.22731 | 34.25714 | 39788 ft | 405 kts | 311° |
| 2026-05-06 18:51 | -30.19341 | 34.20611 | 39787 ft | 405 kts | 311° |
| 2026-05-06 18:51 | -30.15882 | 34.15411 | 39786 ft | 405 kts | 311° |
| 2026-05-06 18:52 | -30.12441 | 34.10244 | 39786 ft | 405 kts | 311° |
| 2026-05-06 18:52 | -30.08998 | 34.05082 | 39784 ft | 405 kts | 311° |
| 2026-05-06 18:53 | -30.05552 | 33.99920 | 39781 ft | 406 kts | 311° |
| 2026-05-06 18:53 | -30.02120 | 33.94786 | 39783 ft | 406 kts | 311° |
| 2026-05-06 18:54 | -29.98664 | 33.89625 | 39784 ft | 406 kts | 311° |
| 2026-05-06 18:54 | -29.95202 | 33.84457 | 39784 ft | 407 kts | 311° |
| 2026-05-06 18:55 | -29.91924 | 33.79187 | 39783 ft | 409 kts | 306° |
| 2026-05-06 18:55 | -29.88850 | 33.73628 | 39787 ft | 410 kts | 307° |
| 2026-05-06 18:56 | -29.85773 | 33.68096 | 39790 ft | 410 kts | 307° |
| 2026-05-06 18:56 | -29.82677 | 33.62538 | 39796 ft | 412 kts | 307° |
| 2026-05-06 18:57 | -29.79595 | 33.57011 | 39798 ft | 412 kts | 306° |
| 2026-05-06 18:57 | -29.76487 | 33.51447 | 39796 ft | 412 kts | 306° |
| 2026-05-06 18:58 | -29.73372 | 33.45880 | 39798 ft | 413 kts | 306° |
| 2026-05-06 18:58 | -29.70260 | 33.40329 | 39801 ft | 413 kts | 306° |
| 2026-05-06 18:59 | -29.67143 | 33.34777 | 39811 ft | 413 kts | 306° |
| 2026-05-06 18:59 | -29.64033 | 33.29243 | 39794 ft | 413 kts | 306° |
| 2026-05-06 19:00 | -29.60892 | 33.23663 | 39801 ft | 414 kts | 306° |
| 2026-05-06 19:00 | -29.57776 | 33.18133 | 39801 ft | 413 kts | 306° |
| 2026-05-06 19:01 | -29.54653 | 33.12601 | 39802 ft | 413 kts | 306° |
| 2026-05-06 19:01 | -29.51523 | 33.07061 | 39796 ft | 413 kts | 305° |
| 2026-05-06 19:02 | -29.48399 | 33.01541 | 39793 ft | 412 kts | 305° |
| 2026-05-06 19:02 | -29.45272 | 32.96023 | 39791 ft | 412 kts | 305° |
| 2026-05-06 19:03 | -29.42167 | 32.90549 | 39791 ft | 411 kts | 305° |
| 2026-05-06 19:03 | -29.39043 | 32.85052 | 39789 ft | 411 kts | 305° |
| 2026-05-06 19:04 | -29.35912 | 32.79548 | 39791 ft | 411 kts | 305° |
| 2026-05-06 19:04 | -29.32781 | 32.74052 | 39784 ft | 411 kts | 305° |
| 2026-05-06 19:05 | -29.29651 | 32.68565 | 39789 ft | 411 kts | 305° |
| 2026-05-06 19:05 | -29.26512 | 32.63069 | 39797 ft | 411 kts | 305° |
| 2026-05-06 19:06 | -29.23378 | 32.57589 | 39802 ft | 411 kts | 305° |
| 2026-05-06 19:06 | -29.20260 | 32.52145 | 39804 ft | 411 kts | 305° |
| 2026-05-06 19:07 | -29.17111 | 32.46655 | 39812 ft | 411 kts | 305° |
| 2026-05-06 19:07 | -29.13985 | 32.41210 | 39815 ft | 411 kts | 305° |
| 2026-05-06 19:08 | -29.10848 | 32.35755 | 39819 ft | 411 kts | 305° |
| 2026-05-06 19:08 | -29.07700 | 32.30287 | 39819 ft | 411 kts | 305° |
| 2026-05-06 19:09 | -29.04546 | 32.24816 | 39826 ft | 411 kts | 305° |
| 2026-05-06 19:09 | -29.01407 | 32.19379 | 39824 ft | 411 kts | 305° |
| 2026-05-06 19:10 | -28.98264 | 32.13940 | 39828 ft | 411 kts | 305° |
| 2026-05-06 19:10 | -28.95116 | 32.08502 | 39829 ft | 411 kts | 305° |
| 2026-05-06 19:11 | -28.91949 | 32.03038 | 39829 ft | 411 kts | 305° |
| 2026-05-06 19:11 | -28.89325 | 31.98516 | 39826 ft | 411 kts | 305° |
| 2026-05-06 19:12 | -28.86165 | 31.93075 | 39827 ft | 411 kts | 305° |
| 2026-05-06 19:12 | -28.82999 | 31.87632 | 39828 ft | 411 kts | 305° |
| 2026-05-06 19:13 | -28.79872 | 31.82262 | 39829 ft | 410 kts | 305° |
| 2026-05-06 19:13 | -28.76698 | 31.76820 | 39836 ft | 410 kts | 305° |
| 2026-05-06 19:14 | -28.73538 | 31.71407 | 39838 ft | 409 kts | 305° |
| 2026-05-06 19:14 | -28.70378 | 31.66004 | 39838 ft | 408 kts | 305° |
| 2026-05-06 19:15 | -28.67228 | 31.60622 | 39832 ft | 408 kts | 305° |
| 2026-05-06 19:15 | -28.64078 | 31.55247 | 39830 ft | 407 kts | 305° |
| 2026-05-06 19:16 | -28.60941 | 31.49902 | 39819 ft | 406 kts | 305° |
| 2026-05-06 19:16 | -28.57800 | 31.44557 | 39814 ft | 405 kts | 305° |
| 2026-05-06 19:17 | -28.54666 | 31.39234 | 39808 ft | 405 kts | 305° |
| 2026-05-06 19:17 | -28.51528 | 31.33907 | 39812 ft | 404 kts | 305° |
| 2026-05-06 19:18 | -28.48390 | 31.28586 | 39813 ft | 404 kts | 305° |
| 2026-05-06 19:18 | -28.45275 | 31.23311 | 39817 ft | 405 kts | 305° |
| 2026-05-06 19:19 | -28.42101 | 31.17945 | 39825 ft | 406 kts | 305° |
| 2026-05-06 19:19 | -28.38954 | 31.12630 | 39838 ft | 406 kts | 305° |
| 2026-05-06 19:20 | -28.35807 | 31.07321 | 39838 ft | 407 kts | 305° |
| 2026-05-06 19:20 | -28.32640 | 31.01985 | 39840 ft | 409 kts | 305° |
| 2026-05-06 19:21 | -28.29448 | 30.96614 | 39856 ft | 410 kts | 305° |
| 2026-05-06 19:21 | -28.26257 | 30.91251 | 39867 ft | 411 kts | 305° |
| 2026-05-06 19:22 | -28.23053 | 30.85874 | 39879 ft | 411 kts | 305° |
| 2026-05-06 19:22 | -28.19832 | 30.80476 | 39890 ft | 412 kts | 305° |
| 2026-05-06 19:23 | -28.16609 | 30.75079 | 39899 ft | 413 kts | 305° |
| 2026-05-06 19:23 | -28.13407 | 30.69726 | 39907 ft | 413 kts | 305° |
| 2026-05-06 19:24 | -28.10179 | 30.64335 | 39914 ft | 414 kts | 305° |
| 2026-05-06 19:24 | -28.06947 | 30.58944 | 39922 ft | 414 kts | 305° |
| 2026-05-06 19:25 | -28.03699 | 30.53535 | 39921 ft | 414 kts | 305° |
| 2026-05-06 19:25 | -28.00462 | 30.48148 | 39923 ft | 413 kts | 304° |
| 2026-05-06 19:26 | -27.97250 | 30.42811 | 39923 ft | 413 kts | 304° |
| 2026-05-06 19:26 | -27.93990 | 30.37401 | 39935 ft | 413 kts | 304° |
| 2026-05-06 19:27 | -27.90764 | 30.32055 | 39939 ft | 414 kts | 304° |
| 2026-05-06 19:27 | -27.87513 | 30.26674 | 39939 ft | 414 kts | 304° |
| 2026-05-06 19:28 | -27.84255 | 30.21287 | 39943 ft | 414 kts | 304° |
| 2026-05-06 19:28 | -27.81002 | 30.15915 | 39947 ft | 414 kts | 304° |
| 2026-05-06 19:29 | -27.77741 | 30.10537 | 39948 ft | 415 kts | 304° |
| 2026-05-06 19:29 | -27.74501 | 30.05200 | 39953 ft | 415 kts | 304° |
| 2026-05-06 19:30 | -27.71226 | 29.99810 | 39951 ft | 415 kts | 304° |
| 2026-05-06 19:30 | -27.67944 | 29.94418 | 39956 ft | 417 kts | 304° |
| 2026-05-06 19:31 | -27.64665 | 29.89037 | 39949 ft | 416 kts | 304° |
| 2026-05-06 19:31 | -27.59709 | 29.80917 | 39970 ft | 418 kts | 304° |
| 2026-05-06 19:32 | -27.56409 | 29.75518 | 39984 ft | 419 kts | 304° |
| 2026-05-06 19:32 | -27.53092 | 29.70096 | 39985 ft | 421 kts | 304° |
| 2026-05-06 19:33 | -27.49793 | 29.64713 | 40004 ft | 422 kts | 304° |
| 2026-05-06 19:33 | -27.46418 | 29.59212 | 40013 ft | 423 kts | 304° |
| 2026-05-06 19:34 | -27.43075 | 29.53768 | 40033 ft | 424 kts | 304° |
| 2026-05-06 19:34 | -27.39684 | 29.48254 | 40036 ft | 426 kts | 304° |
| 2026-05-06 19:35 | -27.36355 | 29.42851 | 39810 ft | 417 kts | 304° |
| 2026-05-06 19:35 | -27.34704 | 29.40172 | 39582 ft | 415 kts | 303° |
| 2026-05-06 19:35 | -27.33065 | 29.37514 | 39367 ft | 415 kts | 303° |
| 2026-05-06 19:36 | -27.31417 | 29.34842 | 39133 ft | 414 kts | 303° |
| 2026-05-06 19:36 | -27.29780 | 29.32191 | 38544 ft | 414 kts | 303° |
| 2026-05-06 19:36 | -27.28123 | 29.29505 | 37469 ft | 420 kts | 303° |
| 2026-05-06 19:36 | -27.26440 | 29.26778 | 36323 ft | 427 kts | 304° |
| 2026-05-06 19:37 | -27.24738 | 29.24025 | 35474 ft | 426 kts | 304° |
| 2026-05-06 19:37 | -27.23055 | 29.21304 | 34638 ft | 423 kts | 304° |
| 2026-05-06 19:37 | -27.21380 | 29.18599 | 33751 ft | 421 kts | 304° |
| 2026-05-06 19:37 | -27.20276 | 29.16816 | 33298 ft | 416 kts | 304° |
| 2026-05-06 19:38 | -27.18358 | 29.13184 | 32629 ft | 402 kts | 299° |
| 2026-05-06 19:38 | -27.17035 | 29.10453 | 32020 ft | 395 kts | 299° |
| 2026-05-06 19:38 | -27.15730 | 29.07758 | 31429 ft | 389 kts | 299° |
| 2026-05-06 19:38 | -27.14438 | 29.05106 | 30831 ft | 384 kts | 299° |
| 2026-05-06 19:39 | -27.13170 | 29.02515 | 30247 ft | 379 kts | 299° |
| 2026-05-06 19:39 | -27.11940 | 29.00009 | 29621 ft | 375 kts | 299° |
| 2026-05-06 19:39 | -27.10681 | 28.97449 | 29038 ft | 369 kts | 299° |
| 2026-05-06 19:39 | -27.09451 | 28.94948 | 28480 ft | 363 kts | 298° |
| 2026-05-06 19:40 | -27.08230 | 28.92468 | 27895 ft | 358 kts | 298° |
| 2026-05-06 19:40 | -27.07029 | 28.90029 | 27327 ft | 354 kts | 298° |
| 2026-05-06 19:40 | -27.05840 | 28.87616 | 26754 ft | 351 kts | 298° |
| 2026-05-06 19:40 | -27.04665 | 28.85231 | 26196 ft | 348 kts | 298° |
| 2026-05-06 19:41 | -27.03492 | 28.82854 | 25640 ft | 346 kts | 297° |
| 2026-05-06 19:41 | -27.02331 | 28.80499 | 25065 ft | 345 kts | 297° |
| 2026-05-06 19:41 | -27.01172 | 28.78153 | 24498 ft | 344 kts | 297° |
| 2026-05-06 19:41 | -26.99957 | 28.75845 | 23996 ft | 349 kts | 304° |
| 2026-05-06 19:42 | -26.98149 | 28.73886 | 23724 ft | 374 kts | 320° |
| 2026-05-06 19:42 | -26.95896 | 28.72364 | 23473 ft | 379 kts | 326° |
| 2026-05-06 19:42 | -26.93582 | 28.70988 | 23039 ft | 375 kts | 327° |
| 2026-05-06 19:42 | -26.91278 | 28.69635 | 22442 ft | 371 kts | 327° |
| 2026-05-06 19:43 | -26.89011 | 28.68279 | 21790 ft | 368 kts | 326° |
| 2026-05-06 19:43 | -26.86766 | 28.66909 | 21188 ft | 364 kts | 326° |
| 2026-05-06 19:43 | -26.84585 | 28.65563 | 20566 ft | 361 kts | 325° |
| 2026-05-06 19:43 | -26.82400 | 28.64197 | 20220 ft | 357 kts | 323° |
| 2026-05-06 19:44 | -26.80410 | 28.62567 | 20115 ft | 352 kts | 314° |
| 2026-05-06 19:44 | -26.78567 | 28.60705 | 20113 ft | 352 kts | 313° |
| 2026-05-06 19:44 | -26.76752 | 28.58870 | 19959 ft | 349 kts | 313° |
| 2026-05-06 19:44 | -26.74949 | 28.57050 | 19482 ft | 348 kts | 313° |
| 2026-05-06 19:45 | -26.73159 | 28.55252 | 18903 ft | 345 kts | 313° |
| 2026-05-06 19:45 | -26.71975 | 28.54057 | 18411 ft | 345 kts | 313° |
| 2026-05-06 19:45 | -26.70172 | 28.52218 | 17124 ft | 358 kts | 313° |
| 2026-05-06 19:45 | -26.67741 | 28.49744 | 16436 ft | 343 kts | 313° |
| 2026-05-06 19:46 | -26.66043 | 28.48026 | 16215 ft | 321 kts | 313° |
| 2026-05-06 19:46 | -26.64946 | 28.46918 | 16113 ft | 308 kts | 313° |
| 2026-05-06 19:46 | -26.63411 | 28.45365 | 15953 ft | 289 kts | 313° |
| 2026-05-06 19:46 | -26.61962 | 28.43897 | 15833 ft | 271 kts | 312° |
| 2026-05-06 19:47 | -26.60608 | 28.42524 | 15709 ft | 254 kts | 312° |
| 2026-05-06 19:47 | -26.59351 | 28.41249 | 15564 ft | 240 kts | 311° |
| 2026-05-06 19:47 | -26.58115 | 28.39988 | 15058 ft | 241 kts | 311° |
| 2026-05-06 19:47 | -26.56878 | 28.38724 | 14575 ft | 241 kts | 311° |
| 2026-05-06 19:48 | -26.55643 | 28.37468 | 14110 ft | 240 kts | 312° |
| 2026-05-06 19:48 | -26.54408 | 28.36214 | 13601 ft | 238 kts | 312° |
| 2026-05-06 19:48 | -26.53181 | 28.34971 | 13117 ft | 237 kts | 312° |
| 2026-05-06 19:48 | -26.51993 | 28.33769 | 12653 ft | 236 kts | 312° |
| 2026-05-06 19:49 | -26.50780 | 28.32540 | 12141 ft | 234 kts | 312° |
| 2026-05-06 19:49 | -26.49580 | 28.31311 | 11681 ft | 233 kts | 311° |
| 2026-05-06 19:49 | -26.48385 | 28.30083 | 11197 ft | 233 kts | 312° |
| 2026-05-06 19:49 | -26.47196 | 28.28866 | 10730 ft | 232 kts | 312° |
| 2026-05-06 19:50 | -26.46010 | 28.27656 | 10262 ft | 231 kts | 312° |
| 2026-05-06 19:50 | -26.44828 | 28.26447 | 9854 ft | 228 kts | 312° |
| 2026-05-06 19:50 | -26.43673 | 28.25265 | 9697 ft | 223 kts | 312° |
| 2026-05-06 19:50 | -26.42532 | 28.24098 | 9537 ft | 222 kts | 312° |
| 2026-05-06 19:51 | -26.41513 | 28.23120 | 9358 ft | 222 kts | 323° |
| 2026-05-06 19:51 | -26.40055 | 28.22436 | 9188 ft | 230 kts | 334° |
| 2026-05-06 19:51 | -26.38537 | 28.21852 | 8895 ft | 232 kts | 334° |
| 2026-05-06 19:51 | -26.37025 | 28.21274 | 8560 ft | 228 kts | 334° |
| 2026-05-06 19:52 | -26.35546 | 28.20705 | 8167 ft | 227 kts | 334° |
| 2026-05-06 19:52 | -26.34048 | 28.20164 | 8020 ft | 224 kts | 341° |
| 2026-05-06 19:52 | -26.32512 | 28.20046 | 8003 ft | 223 kts | 358° |
| 2026-05-06 19:52 | -26.30978 | 28.20328 | 8007 ft | 226 kts | 6° |
| 2026-05-06 19:53 | -26.29567 | 28.20736 | 8000 ft | 228 kts | 9° |
| 2026-05-06 19:53 | -26.28031 | 28.21219 | 7971 ft | 229 kts | 8° |
| 2026-05-06 19:53 | -26.26485 | 28.21699 | 7644 ft | 230 kts | 8° |
| 2026-05-06 19:53 | -26.24978 | 28.22169 | 7354 ft | 221 kts | 8° |
| 2026-05-06 19:54 | -26.23517 | 28.22626 | 7064 ft | 207 kts | 8° |
| 2026-05-06 19:54 | -26.22247 | 28.23028 | 6806 ft | 176 kts | 7° |
| 2026-05-06 19:54 | -26.21140 | 28.23367 | 6577 ft | 157 kts | 6° |
| 2026-05-06 19:54 | -26.20117 | 28.23684 | 6351 ft | 151 kts | 8° |
| 2026-05-06 19:55 | -26.19904 | 28.23750 | 6311 ft | 151 kts | 8° |
| 2026-05-06 19:55 | -26.18914 | 28.24057 | 6072 ft | 149 kts | 11° |
| 2026-05-06 19:56 | -26.17919 | 28.24360 | 5777 ft | 148 kts | 13° |
| 2026-05-06 19:56 | -26.16919 | 28.24663 | 5599 ft | 147 kts | 12° |
| 2026-05-06 19:56 | -26.15980 | 28.24950 | 5522 ft | 127 kts | 16° |
| 2026-05-06 19:56 | -26.15342 | 28.25163 | 5519 ft | 55 kts | 16° |
| 2026-05-06 19:57 | -26.15227 | 28.25200 | 5518 ft | 0 kts | 16° |
| 2026-05-06 19:57 | -26.15199 | 28.25209 | 5517 ft | 10 kts | 15° |
| 2026-05-06 19:57 | -26.15057 | 28.25253 | 5514 ft | 27 kts | 15° |
| 2026-05-06 19:57 | -26.14873 | 28.25308 | 5513 ft | 28 kts | 12° |
| 2026-05-06 19:58 | -26.14685 | 28.25318 | 5509 ft | 18 kts | 354° |
| 2026-05-06 19:58 | -26.14661 | 28.25315 | 5510 ft | 5 kts | 354° |
| 2026-05-06 19:58 | -26.14606 | 28.25304 | 5511 ft | 10 kts | 343° |
| 2026-05-06 19:58 | -26.14535 | 28.25272 | 5514 ft | 12 kts | 330° |
| 2026-05-06 19:59 | -26.14472 | 28.25206 | 5516 ft | 14 kts | 313° |
| 2026-05-06 19:59 | -26.14400 | 28.25132 | 5521 ft | 14 kts | 318° |
| 2026-05-06 19:59 | -26.14345 | 28.25072 | 5530 ft | 9 kts | 316° |
| 2026-05-06 19:59 | -26.14303 | 28.25027 | 5536 ft | 10 kts | 316° |
| 2026-05-06 20:00 | -26.14217 | 28.24933 | 5536 ft | 25 kts | 315° |
| 2026-05-06 20:00 | -26.14070 | 28.24772 | 5536 ft | 28 kts | 315° |
| 2026-05-06 20:00 | -26.13940 | 28.24633 | 5537 ft | 26 kts | 316° |
| 2026-05-06 20:00 | -26.13816 | 28.24498 | 5546 ft | 24 kts | 315° |
| 2026-05-06 20:01 | -26.13703 | 28.24375 | 5550 ft | 22 kts | 316° |
| 2026-05-06 20:01 | -26.13593 | 28.24257 | 5548 ft | 22 kts | 316° |
| 2026-05-06 20:01 | -26.13484 | 28.24138 | 5551 ft | 22 kts | 315° |
| 2026-05-06 20:01 | -26.13383 | 28.24029 | 5556 ft | 19 kts | 315° |
| 2026-05-06 20:02 | -26.13360 | 28.24004 | 5554 ft | 0 kts | 315° |
| 2026-05-06 20:02 | -26.13340 | 28.23981 | 5554 ft | 7 kts | 315° |
| 2026-05-06 20:03 | -26.13288 | 28.23924 | 5552 ft | 13 kts | 315° |
| 2026-05-06 20:03 | -26.13214 | 28.23844 | 5550 ft | 16 kts | 316° |
| 2026-05-06 20:03 | -26.13132 | 28.23757 | 5553 ft | 13 kts | 316° |
| 2026-05-06 20:03 | -26.13055 | 28.23726 | 5549 ft | 12 kts | 8° |
| 2026-05-06 20:04 | -26.12966 | 28.23753 | 5552 ft | 15 kts | 18° |
| 2026-05-06 20:04 | -26.12851 | 28.23789 | 5549 ft | 19 kts | 11° |
| 2026-05-06 20:04 | -26.12804 | 28.23772 | 5552 ft | 2 kts | 269° |
| 2026-05-06 20:04 | -26.12806 | 28.23742 | 5551 ft | 6 kts | 256° |
| 2026-05-06 20:05 | -26.12819 | 28.23685 | 5554 ft | 9 kts | 263° |
| 2026-05-06 20:05 | -26.12820 | 28.23600 | 5553 ft | 13 kts | 275° |
| 2026-05-06 20:05 | -26.12814 | 28.23525 | 5552 ft | 6 kts | 257° |
| 2026-05-06 20:05 | -26.12829 | 28.23507 | 5555 ft | 3 kts | 199° |
| 2026-05-06 20:06 | -26.12858 | 28.23495 | 5555 ft | 6 kts | 191° |
| 2026-05-06 20:06 | -26.12897 | 28.23491 | 5554 ft | 0 kts | 186° |
| 2026-05-06 20:06 | -26.12898 | 28.23490 | 5554 ft | 1 kts | 186° |
| 2026-05-06 20:06 | -26.12905 | 28.23490 | 5553 ft | 0 kts | 186° |